<?xml version="1.0" encoding="UTF-8" standalone="no" ?>
<gpx xmlns="http://www.topografix.com/GPX/1/1" xmlns:xsi="http://www.w3.org/2001/XMLSchema-instance" xsi:schemaLocation="http://www.topografix.com/GPX/1/1 http://www.topografix.com/GPX/1/1/gpx.xsd" version="1.1" creator="VisuGPX - https://www.visugpx.com">
  <metadata>
    <name>83 - L - le Muy </name>
    <desc><![CDATA[83 - L - le Muy : moulin de Gournié 
2022-04-25]]></desc>
  </metadata>
  <trk>
    <name><![CDATA[le Muy moulin de Gournié 2022-04-25-01]]></name>
    <trkseg>
      <trkpt lat="43.50455" lon="6.59057">
        <ele>41.3</ele>
        <time>2022-04-25T07:13:20Z</time>
      </trkpt>
      <trkpt lat="43.50455" lon="6.59057">
        <ele>41.3</ele>
        <time>2022-04-25T07:13:21Z</time>
      </trkpt>
      <trkpt lat="43.50464" lon="6.59054">
        <ele>40.5</ele>
        <time>2022-04-25T07:14:29Z</time>
      </trkpt>
      <trkpt lat="43.50456" lon="6.59046">
        <ele>40.5</ele>
        <time>2022-04-25T07:19:17Z</time>
      </trkpt>
      <trkpt lat="43.50464" lon="6.59041">
        <ele>41.2</ele>
        <time>2022-04-25T07:21:52Z</time>
      </trkpt>
      <trkpt lat="43.50473" lon="6.59038">
        <ele>40.8</ele>
        <time>2022-04-25T07:22:04Z</time>
      </trkpt>
      <trkpt lat="43.50483" lon="6.59038">
        <ele>41.1</ele>
        <time>2022-04-25T07:22:32Z</time>
      </trkpt>
      <trkpt lat="43.50493" lon="6.59035">
        <ele>41.5</ele>
        <time>2022-04-25T07:22:38Z</time>
      </trkpt>
      <trkpt lat="43.50502" lon="6.59033">
        <ele>41.9</ele>
        <time>2022-04-25T07:22:46Z</time>
      </trkpt>
      <trkpt lat="43.50511" lon="6.59032">
        <ele>42.2</ele>
        <time>2022-04-25T07:22:53Z</time>
      </trkpt>
      <trkpt lat="43.50522" lon="6.59032">
        <ele>42.1</ele>
        <time>2022-04-25T07:23:01Z</time>
      </trkpt>
      <trkpt lat="43.50531" lon="6.5903">
        <ele>42.1</ele>
        <time>2022-04-25T07:23:10Z</time>
      </trkpt>
      <trkpt lat="43.50541" lon="6.5903">
        <ele>42.3</ele>
        <time>2022-04-25T07:23:18Z</time>
      </trkpt>
      <trkpt lat="43.50551" lon="6.59027">
        <ele>42.6</ele>
        <time>2022-04-25T07:23:24Z</time>
      </trkpt>
      <trkpt lat="43.5056" lon="6.59027">
        <ele>42.6</ele>
        <time>2022-04-25T07:23:34Z</time>
      </trkpt>
      <trkpt lat="43.5057" lon="6.59024">
        <ele>42.4</ele>
        <time>2022-04-25T07:23:42Z</time>
      </trkpt>
      <trkpt lat="43.5058" lon="6.59023">
        <ele>42.1</ele>
        <time>2022-04-25T07:23:50Z</time>
      </trkpt>
      <trkpt lat="43.50589" lon="6.59022">
        <ele>41.8</ele>
        <time>2022-04-25T07:23:58Z</time>
      </trkpt>
      <trkpt lat="43.50598" lon="6.5902">
        <ele>42.3</ele>
        <time>2022-04-25T07:24:07Z</time>
      </trkpt>
      <trkpt lat="43.50607" lon="6.59016">
        <ele>42.2</ele>
        <time>2022-04-25T07:24:17Z</time>
      </trkpt>
      <trkpt lat="43.50615" lon="6.59009">
        <ele>42.3</ele>
        <time>2022-04-25T07:24:25Z</time>
      </trkpt>
      <trkpt lat="43.50624" lon="6.59011">
        <ele>42.2</ele>
        <time>2022-04-25T07:24:35Z</time>
      </trkpt>
      <trkpt lat="43.50634" lon="6.59008">
        <ele>42.6</ele>
        <time>2022-04-25T07:24:43Z</time>
      </trkpt>
      <trkpt lat="43.50644" lon="6.59006">
        <ele>42.6</ele>
        <time>2022-04-25T07:24:51Z</time>
      </trkpt>
      <trkpt lat="43.50653" lon="6.59006">
        <ele>42.8</ele>
        <time>2022-04-25T07:25:00Z</time>
      </trkpt>
      <trkpt lat="43.50663" lon="6.59004">
        <ele>42.7</ele>
        <time>2022-04-25T07:25:08Z</time>
      </trkpt>
      <trkpt lat="43.50673" lon="6.59003">
        <ele>43</ele>
        <time>2022-04-25T07:25:16Z</time>
      </trkpt>
      <trkpt lat="43.50682" lon="6.59001">
        <ele>42.7</ele>
        <time>2022-04-25T07:25:25Z</time>
      </trkpt>
      <trkpt lat="43.50692" lon="6.58998">
        <ele>41.8</ele>
        <time>2022-04-25T07:25:34Z</time>
      </trkpt>
      <trkpt lat="43.50701" lon="6.58993">
        <ele>41.2</ele>
        <time>2022-04-25T07:25:44Z</time>
      </trkpt>
      <trkpt lat="43.5071" lon="6.58989">
        <ele>40.2</ele>
        <time>2022-04-25T07:25:57Z</time>
      </trkpt>
      <trkpt lat="43.50719" lon="6.58985">
        <ele>40.1</ele>
        <time>2022-04-25T07:26:07Z</time>
      </trkpt>
      <trkpt lat="43.50728" lon="6.58981">
        <ele>41.2</ele>
        <time>2022-04-25T07:26:17Z</time>
      </trkpt>
      <trkpt lat="43.50738" lon="6.58977">
        <ele>41.8</ele>
        <time>2022-04-25T07:26:26Z</time>
      </trkpt>
      <trkpt lat="43.50747" lon="6.58971">
        <ele>42.3</ele>
        <time>2022-04-25T07:26:34Z</time>
      </trkpt>
      <trkpt lat="43.50755" lon="6.58965">
        <ele>42.2</ele>
        <time>2022-04-25T07:26:42Z</time>
      </trkpt>
      <trkpt lat="43.50763" lon="6.58957">
        <ele>42.5</ele>
        <time>2022-04-25T07:26:51Z</time>
      </trkpt>
      <trkpt lat="43.50772" lon="6.58951">
        <ele>42.8</ele>
        <time>2022-04-25T07:27:00Z</time>
      </trkpt>
      <trkpt lat="43.5078" lon="6.58945">
        <ele>43</ele>
        <time>2022-04-25T07:27:09Z</time>
      </trkpt>
      <trkpt lat="43.50789" lon="6.5894">
        <ele>43.3</ele>
        <time>2022-04-25T07:27:17Z</time>
      </trkpt>
      <trkpt lat="43.50798" lon="6.58935">
        <ele>43.3</ele>
        <time>2022-04-25T07:27:26Z</time>
      </trkpt>
      <trkpt lat="43.50807" lon="6.58934">
        <ele>43.9</ele>
        <time>2022-04-25T07:27:35Z</time>
      </trkpt>
      <trkpt lat="43.50817" lon="6.58932">
        <ele>43.8</ele>
        <time>2022-04-25T07:27:45Z</time>
      </trkpt>
      <trkpt lat="43.50827" lon="6.58932">
        <ele>43.8</ele>
        <time>2022-04-25T07:27:55Z</time>
      </trkpt>
      <trkpt lat="43.50836" lon="6.58933">
        <ele>43.4</ele>
        <time>2022-04-25T07:28:04Z</time>
      </trkpt>
      <trkpt lat="43.50845" lon="6.58933">
        <ele>43.7</ele>
        <time>2022-04-25T07:28:13Z</time>
      </trkpt>
      <trkpt lat="43.50854" lon="6.58932">
        <ele>43.9</ele>
        <time>2022-04-25T07:28:21Z</time>
      </trkpt>
      <trkpt lat="43.50864" lon="6.58933">
        <ele>43.9</ele>
        <time>2022-04-25T07:28:31Z</time>
      </trkpt>
      <trkpt lat="43.50874" lon="6.58933">
        <ele>44</ele>
        <time>2022-04-25T07:28:41Z</time>
      </trkpt>
      <trkpt lat="43.50883" lon="6.58932">
        <ele>44.3</ele>
        <time>2022-04-25T07:28:50Z</time>
      </trkpt>
      <trkpt lat="43.50893" lon="6.58932">
        <ele>44.7</ele>
        <time>2022-04-25T07:28:59Z</time>
      </trkpt>
      <trkpt lat="43.50902" lon="6.58931">
        <ele>44.5</ele>
        <time>2022-04-25T07:29:07Z</time>
      </trkpt>
      <trkpt lat="43.50912" lon="6.58929">
        <ele>44.7</ele>
        <time>2022-04-25T07:29:15Z</time>
      </trkpt>
      <trkpt lat="43.50921" lon="6.58928">
        <ele>44.6</ele>
        <time>2022-04-25T07:29:24Z</time>
      </trkpt>
      <trkpt lat="43.5093" lon="6.58927">
        <ele>44.8</ele>
        <time>2022-04-25T07:29:33Z</time>
      </trkpt>
      <trkpt lat="43.50939" lon="6.58925">
        <ele>44.8</ele>
        <time>2022-04-25T07:29:49Z</time>
      </trkpt>
      <trkpt lat="43.50949" lon="6.58922">
        <ele>45</ele>
        <time>2022-04-25T07:30:00Z</time>
      </trkpt>
      <trkpt lat="43.50958" lon="6.58922">
        <ele>45.5</ele>
        <time>2022-04-25T07:30:12Z</time>
      </trkpt>
      <trkpt lat="43.50967" lon="6.5892">
        <ele>45.9</ele>
        <time>2022-04-25T07:30:21Z</time>
      </trkpt>
      <trkpt lat="43.50976" lon="6.58918">
        <ele>45.9</ele>
        <time>2022-04-25T07:30:30Z</time>
      </trkpt>
      <trkpt lat="43.50986" lon="6.58916">
        <ele>46.2</ele>
        <time>2022-04-25T07:30:39Z</time>
      </trkpt>
      <trkpt lat="43.50995" lon="6.58915">
        <ele>45.8</ele>
        <time>2022-04-25T07:30:48Z</time>
      </trkpt>
      <trkpt lat="43.51004" lon="6.58913">
        <ele>46.7</ele>
        <time>2022-04-25T07:30:58Z</time>
      </trkpt>
      <trkpt lat="43.51013" lon="6.58909">
        <ele>47.1</ele>
        <time>2022-04-25T07:31:07Z</time>
      </trkpt>
      <trkpt lat="43.51022" lon="6.58903">
        <ele>47.2</ele>
        <time>2022-04-25T07:31:16Z</time>
      </trkpt>
      <trkpt lat="43.5103" lon="6.58898">
        <ele>46.9</ele>
        <time>2022-04-25T07:31:25Z</time>
      </trkpt>
      <trkpt lat="43.51038" lon="6.58891">
        <ele>47</ele>
        <time>2022-04-25T07:31:34Z</time>
      </trkpt>
      <trkpt lat="43.51046" lon="6.58883">
        <ele>46.8</ele>
        <time>2022-04-25T07:31:43Z</time>
      </trkpt>
      <trkpt lat="43.51053" lon="6.58875">
        <ele>46.8</ele>
        <time>2022-04-25T07:31:52Z</time>
      </trkpt>
      <trkpt lat="43.51061" lon="6.58866">
        <ele>46.5</ele>
        <time>2022-04-25T07:32:01Z</time>
      </trkpt>
      <trkpt lat="43.51068" lon="6.58858">
        <ele>46.7</ele>
        <time>2022-04-25T07:32:10Z</time>
      </trkpt>
      <trkpt lat="43.51076" lon="6.58849">
        <ele>46.7</ele>
        <time>2022-04-25T07:32:19Z</time>
      </trkpt>
      <trkpt lat="43.51083" lon="6.5884">
        <ele>46.8</ele>
        <time>2022-04-25T07:32:28Z</time>
      </trkpt>
      <trkpt lat="43.51092" lon="6.58833">
        <ele>46.8</ele>
        <time>2022-04-25T07:32:37Z</time>
      </trkpt>
      <trkpt lat="43.51099" lon="6.58824">
        <ele>46.7</ele>
        <time>2022-04-25T07:32:45Z</time>
      </trkpt>
      <trkpt lat="43.51106" lon="6.58816">
        <ele>46.5</ele>
        <time>2022-04-25T07:32:54Z</time>
      </trkpt>
      <trkpt lat="43.51113" lon="6.58808">
        <ele>46.6</ele>
        <time>2022-04-25T07:33:03Z</time>
      </trkpt>
      <trkpt lat="43.5112" lon="6.58799">
        <ele>46.6</ele>
        <time>2022-04-25T07:33:12Z</time>
      </trkpt>
      <trkpt lat="43.51127" lon="6.5879">
        <ele>46.6</ele>
        <time>2022-04-25T07:33:20Z</time>
      </trkpt>
      <trkpt lat="43.51134" lon="6.58781">
        <ele>46.8</ele>
        <time>2022-04-25T07:33:29Z</time>
      </trkpt>
      <trkpt lat="43.51141" lon="6.58771">
        <ele>47.1</ele>
        <time>2022-04-25T07:33:38Z</time>
      </trkpt>
      <trkpt lat="43.51147" lon="6.58761">
        <ele>46.3</ele>
        <time>2022-04-25T07:33:47Z</time>
      </trkpt>
      <trkpt lat="43.51152" lon="6.58749">
        <ele>45.9</ele>
        <time>2022-04-25T07:33:57Z</time>
      </trkpt>
      <trkpt lat="43.51156" lon="6.58738">
        <ele>45.8</ele>
        <time>2022-04-25T07:34:37Z</time>
      </trkpt>
      <trkpt lat="43.51161" lon="6.58727">
        <ele>46</ele>
        <time>2022-04-25T07:41:20Z</time>
      </trkpt>
      <trkpt lat="43.51167" lon="6.58718">
        <ele>46.5</ele>
        <time>2022-04-25T07:43:27Z</time>
      </trkpt>
      <trkpt lat="43.51173" lon="6.58708">
        <ele>46.6</ele>
        <time>2022-04-25T07:43:38Z</time>
      </trkpt>
      <trkpt lat="43.51181" lon="6.58699">
        <ele>47.1</ele>
        <time>2022-04-25T07:43:48Z</time>
      </trkpt>
      <trkpt lat="43.51188" lon="6.58691">
        <ele>47.3</ele>
        <time>2022-04-25T07:43:58Z</time>
      </trkpt>
      <trkpt lat="43.51196" lon="6.58684">
        <ele>47.4</ele>
        <time>2022-04-25T07:44:07Z</time>
      </trkpt>
      <trkpt lat="43.51204" lon="6.58675">
        <ele>47.5</ele>
        <time>2022-04-25T07:44:17Z</time>
      </trkpt>
      <trkpt lat="43.51212" lon="6.58669">
        <ele>47.4</ele>
        <time>2022-04-25T07:44:26Z</time>
      </trkpt>
      <trkpt lat="43.51221" lon="6.58665">
        <ele>47.7</ele>
        <time>2022-04-25T07:44:35Z</time>
      </trkpt>
      <trkpt lat="43.5123" lon="6.58663">
        <ele>47.7</ele>
        <time>2022-04-25T07:44:44Z</time>
      </trkpt>
      <trkpt lat="43.5124" lon="6.58666">
        <ele>47.9</ele>
        <time>2022-04-25T07:44:59Z</time>
      </trkpt>
      <trkpt lat="43.51248" lon="6.58671">
        <ele>47.9</ele>
        <time>2022-04-25T07:45:10Z</time>
      </trkpt>
      <trkpt lat="43.51257" lon="6.58675">
        <ele>47.6</ele>
        <time>2022-04-25T07:45:19Z</time>
      </trkpt>
      <trkpt lat="43.51265" lon="6.58681">
        <ele>47.5</ele>
        <time>2022-04-25T07:45:28Z</time>
      </trkpt>
      <trkpt lat="43.51274" lon="6.58686">
        <ele>47.5</ele>
        <time>2022-04-25T07:45:38Z</time>
      </trkpt>
      <trkpt lat="43.51282" lon="6.5869">
        <ele>47.9</ele>
        <time>2022-04-25T07:45:47Z</time>
      </trkpt>
      <trkpt lat="43.51292" lon="6.58693">
        <ele>48</ele>
        <time>2022-04-25T07:45:57Z</time>
      </trkpt>
      <trkpt lat="43.51301" lon="6.58697">
        <ele>48.5</ele>
        <time>2022-04-25T07:46:07Z</time>
      </trkpt>
      <trkpt lat="43.5131" lon="6.58701">
        <ele>49</ele>
        <time>2022-04-25T07:46:16Z</time>
      </trkpt>
      <trkpt lat="43.51319" lon="6.58706">
        <ele>49.2</ele>
        <time>2022-04-25T07:46:26Z</time>
      </trkpt>
      <trkpt lat="43.51328" lon="6.58712">
        <ele>49.2</ele>
        <time>2022-04-25T07:46:37Z</time>
      </trkpt>
      <trkpt lat="43.51335" lon="6.58721">
        <ele>49.4</ele>
        <time>2022-04-25T07:46:47Z</time>
      </trkpt>
      <trkpt lat="43.51342" lon="6.5873">
        <ele>50.5</ele>
        <time>2022-04-25T07:46:57Z</time>
      </trkpt>
      <trkpt lat="43.51349" lon="6.5874">
        <ele>51.9</ele>
        <time>2022-04-25T07:47:08Z</time>
      </trkpt>
      <trkpt lat="43.51357" lon="6.58747">
        <ele>53.2</ele>
        <time>2022-04-25T07:47:20Z</time>
      </trkpt>
      <trkpt lat="43.51366" lon="6.58753">
        <ele>53.3</ele>
        <time>2022-04-25T07:47:30Z</time>
      </trkpt>
      <trkpt lat="43.51372" lon="6.58762">
        <ele>53.1</ele>
        <time>2022-04-25T07:47:39Z</time>
      </trkpt>
      <trkpt lat="43.5138" lon="6.5877">
        <ele>52.7</ele>
        <time>2022-04-25T07:47:48Z</time>
      </trkpt>
      <trkpt lat="43.51388" lon="6.58777">
        <ele>52.4</ele>
        <time>2022-04-25T07:47:57Z</time>
      </trkpt>
      <trkpt lat="43.51397" lon="6.5878">
        <ele>51.8</ele>
        <time>2022-04-25T07:48:06Z</time>
      </trkpt>
      <trkpt lat="43.51406" lon="6.58776">
        <ele>51.5</ele>
        <time>2022-04-25T07:48:14Z</time>
      </trkpt>
      <trkpt lat="43.51415" lon="6.58773">
        <ele>50.5</ele>
        <time>2022-04-25T07:48:23Z</time>
      </trkpt>
      <trkpt lat="43.51424" lon="6.58768">
        <ele>51.4</ele>
        <time>2022-04-25T07:48:33Z</time>
      </trkpt>
      <trkpt lat="43.51434" lon="6.58765">
        <ele>51.8</ele>
        <time>2022-04-25T07:48:44Z</time>
      </trkpt>
      <trkpt lat="43.51443" lon="6.5876">
        <ele>52.2</ele>
        <time>2022-04-25T07:48:54Z</time>
      </trkpt>
      <trkpt lat="43.51451" lon="6.58753">
        <ele>52.5</ele>
        <time>2022-04-25T07:49:03Z</time>
      </trkpt>
      <trkpt lat="43.51459" lon="6.58747">
        <ele>53</ele>
        <time>2022-04-25T07:49:12Z</time>
      </trkpt>
      <trkpt lat="43.51466" lon="6.58738">
        <ele>52.4</ele>
        <time>2022-04-25T07:49:20Z</time>
      </trkpt>
      <trkpt lat="43.51468" lon="6.58725">
        <ele>52.3</ele>
        <time>2022-04-25T07:49:29Z</time>
      </trkpt>
      <trkpt lat="43.51464" lon="6.58714">
        <ele>53.1</ele>
        <time>2022-04-25T07:49:38Z</time>
      </trkpt>
      <trkpt lat="43.51458" lon="6.58704">
        <ele>53.8</ele>
        <time>2022-04-25T07:49:48Z</time>
      </trkpt>
      <trkpt lat="43.51452" lon="6.58694">
        <ele>54.8</ele>
        <time>2022-04-25T07:49:58Z</time>
      </trkpt>
      <trkpt lat="43.51448" lon="6.58683">
        <ele>54.9</ele>
        <time>2022-04-25T07:50:08Z</time>
      </trkpt>
      <trkpt lat="43.51446" lon="6.5867">
        <ele>55.3</ele>
        <time>2022-04-25T07:50:18Z</time>
      </trkpt>
      <trkpt lat="43.51446" lon="6.58657">
        <ele>55.5</ele>
        <time>2022-04-25T07:50:28Z</time>
      </trkpt>
      <trkpt lat="43.51453" lon="6.58647">
        <ele>56.2</ele>
        <time>2022-04-25T07:50:40Z</time>
      </trkpt>
      <trkpt lat="43.51461" lon="6.58643">
        <ele>57.2</ele>
        <time>2022-04-25T07:50:51Z</time>
      </trkpt>
      <trkpt lat="43.5147" lon="6.5864">
        <ele>57.9</ele>
        <time>2022-04-25T07:51:02Z</time>
      </trkpt>
      <trkpt lat="43.51479" lon="6.58638">
        <ele>58.2</ele>
        <time>2022-04-25T07:51:11Z</time>
      </trkpt>
      <trkpt lat="43.51489" lon="6.58638">
        <ele>58.3</ele>
        <time>2022-04-25T07:51:20Z</time>
      </trkpt>
      <trkpt lat="43.51498" lon="6.58637">
        <ele>58.5</ele>
        <time>2022-04-25T07:51:30Z</time>
      </trkpt>
      <trkpt lat="43.51507" lon="6.58636">
        <ele>58.1</ele>
        <time>2022-04-25T07:51:39Z</time>
      </trkpt>
      <trkpt lat="43.51517" lon="6.58634">
        <ele>58.4</ele>
        <time>2022-04-25T07:51:49Z</time>
      </trkpt>
      <trkpt lat="43.51526" lon="6.58632">
        <ele>58.2</ele>
        <time>2022-04-25T07:51:58Z</time>
      </trkpt>
      <trkpt lat="43.51535" lon="6.5863">
        <ele>58.2</ele>
        <time>2022-04-25T07:52:07Z</time>
      </trkpt>
      <trkpt lat="43.51544" lon="6.58629">
        <ele>58.2</ele>
        <time>2022-04-25T07:52:16Z</time>
      </trkpt>
      <trkpt lat="43.51553" lon="6.58633">
        <ele>58.6</ele>
        <time>2022-04-25T07:52:25Z</time>
      </trkpt>
      <trkpt lat="43.51562" lon="6.58636">
        <ele>58.8</ele>
        <time>2022-04-25T07:52:34Z</time>
      </trkpt>
      <trkpt lat="43.51572" lon="6.5864">
        <ele>58.3</ele>
        <time>2022-04-25T07:52:44Z</time>
      </trkpt>
      <trkpt lat="43.51581" lon="6.58644">
        <ele>58.5</ele>
        <time>2022-04-25T07:52:54Z</time>
      </trkpt>
      <trkpt lat="43.5159" lon="6.58641">
        <ele>59.3</ele>
        <time>2022-04-25T07:53:04Z</time>
      </trkpt>
      <trkpt lat="43.51593" lon="6.58628">
        <ele>59.2</ele>
        <time>2022-04-25T07:53:13Z</time>
      </trkpt>
      <trkpt lat="43.51594" lon="6.58615">
        <ele>59.3</ele>
        <time>2022-04-25T07:53:23Z</time>
      </trkpt>
      <trkpt lat="43.51597" lon="6.58604">
        <ele>59.9</ele>
        <time>2022-04-25T07:53:41Z</time>
      </trkpt>
      <trkpt lat="43.51603" lon="6.58594">
        <ele>60.3</ele>
        <time>2022-04-25T07:53:52Z</time>
      </trkpt>
      <trkpt lat="43.5161" lon="6.58585">
        <ele>60.7</ele>
        <time>2022-04-25T07:54:02Z</time>
      </trkpt>
      <trkpt lat="43.51618" lon="6.58578">
        <ele>60.7</ele>
        <time>2022-04-25T07:54:12Z</time>
      </trkpt>
      <trkpt lat="43.51627" lon="6.58575">
        <ele>60.5</ele>
        <time>2022-04-25T07:54:22Z</time>
      </trkpt>
      <trkpt lat="43.51636" lon="6.5857">
        <ele>60.9</ele>
        <time>2022-04-25T07:54:32Z</time>
      </trkpt>
      <trkpt lat="43.51645" lon="6.58569">
        <ele>60.7</ele>
        <time>2022-04-25T07:54:42Z</time>
      </trkpt>
      <trkpt lat="43.51655" lon="6.58569">
        <ele>60.8</ele>
        <time>2022-04-25T07:54:54Z</time>
      </trkpt>
      <trkpt lat="43.51664" lon="6.58571">
        <ele>60.7</ele>
        <time>2022-04-25T07:55:05Z</time>
      </trkpt>
      <trkpt lat="43.51673" lon="6.58573">
        <ele>62.1</ele>
        <time>2022-04-25T07:55:15Z</time>
      </trkpt>
      <trkpt lat="43.51682" lon="6.58575">
        <ele>63.3</ele>
        <time>2022-04-25T07:55:24Z</time>
      </trkpt>
      <trkpt lat="43.51692" lon="6.58574">
        <ele>64.2</ele>
        <time>2022-04-25T07:55:36Z</time>
      </trkpt>
      <trkpt lat="43.51701" lon="6.58575">
        <ele>64.1</ele>
        <time>2022-04-25T07:56:05Z</time>
      </trkpt>
      <trkpt lat="43.51711" lon="6.58579">
        <ele>64.8</ele>
        <time>2022-04-25T07:56:13Z</time>
      </trkpt>
      <trkpt lat="43.51721" lon="6.58578">
        <ele>65</ele>
        <time>2022-04-25T07:56:35Z</time>
      </trkpt>
      <trkpt lat="43.51731" lon="6.5858">
        <ele>65.6</ele>
        <time>2022-04-25T07:56:46Z</time>
      </trkpt>
      <trkpt lat="43.5174" lon="6.5858">
        <ele>66.3</ele>
        <time>2022-04-25T07:56:56Z</time>
      </trkpt>
      <trkpt lat="43.5175" lon="6.5858">
        <ele>66.5</ele>
        <time>2022-04-25T07:57:06Z</time>
      </trkpt>
      <trkpt lat="43.51759" lon="6.58578">
        <ele>66.8</ele>
        <time>2022-04-25T07:57:16Z</time>
      </trkpt>
      <trkpt lat="43.51768" lon="6.58576">
        <ele>67</ele>
        <time>2022-04-25T07:57:27Z</time>
      </trkpt>
      <trkpt lat="43.51778" lon="6.58579">
        <ele>67.4</ele>
        <time>2022-04-25T07:57:37Z</time>
      </trkpt>
      <trkpt lat="43.51787" lon="6.58579">
        <ele>68.4</ele>
        <time>2022-04-25T07:57:46Z</time>
      </trkpt>
      <trkpt lat="43.51796" lon="6.58572">
        <ele>68.7</ele>
        <time>2022-04-25T07:57:56Z</time>
      </trkpt>
      <trkpt lat="43.51802" lon="6.58564">
        <ele>68.5</ele>
        <time>2022-04-25T07:58:05Z</time>
      </trkpt>
      <trkpt lat="43.5181" lon="6.58557">
        <ele>68.1</ele>
        <time>2022-04-25T07:58:14Z</time>
      </trkpt>
      <trkpt lat="43.51819" lon="6.58552">
        <ele>67.8</ele>
        <time>2022-04-25T07:58:23Z</time>
      </trkpt>
      <trkpt lat="43.51827" lon="6.58543">
        <ele>67.2</ele>
        <time>2022-04-25T07:58:32Z</time>
      </trkpt>
      <trkpt lat="43.51836" lon="6.58537">
        <ele>66.5</ele>
        <time>2022-04-25T07:58:41Z</time>
      </trkpt>
      <trkpt lat="43.51844" lon="6.58529">
        <ele>65.4</ele>
        <time>2022-04-25T07:58:50Z</time>
      </trkpt>
      <trkpt lat="43.5185" lon="6.5852">
        <ele>64.5</ele>
        <time>2022-04-25T07:58:59Z</time>
      </trkpt>
      <trkpt lat="43.51857" lon="6.58512">
        <ele>63.7</ele>
        <time>2022-04-25T07:59:07Z</time>
      </trkpt>
      <trkpt lat="43.51863" lon="6.58502">
        <ele>62.7</ele>
        <time>2022-04-25T07:59:16Z</time>
      </trkpt>
      <trkpt lat="43.51871" lon="6.58493">
        <ele>62</ele>
        <time>2022-04-25T07:59:25Z</time>
      </trkpt>
      <trkpt lat="43.51879" lon="6.58485">
        <ele>61.2</ele>
        <time>2022-04-25T07:59:34Z</time>
      </trkpt>
      <trkpt lat="43.51886" lon="6.58475">
        <ele>60.6</ele>
        <time>2022-04-25T07:59:45Z</time>
      </trkpt>
      <trkpt lat="43.51894" lon="6.58471">
        <ele>60.1</ele>
        <time>2022-04-25T07:59:54Z</time>
      </trkpt>
      <trkpt lat="43.51903" lon="6.58466">
        <ele>59.5</ele>
        <time>2022-04-25T08:00:04Z</time>
      </trkpt>
      <trkpt lat="43.51913" lon="6.58464">
        <ele>58.5</ele>
        <time>2022-04-25T08:00:17Z</time>
      </trkpt>
      <trkpt lat="43.51922" lon="6.58461">
        <ele>57.8</ele>
        <time>2022-04-25T08:00:25Z</time>
      </trkpt>
      <trkpt lat="43.51929" lon="6.58451">
        <ele>57.5</ele>
        <time>2022-04-25T08:00:36Z</time>
      </trkpt>
      <trkpt lat="43.51933" lon="6.5844">
        <ele>57.1</ele>
        <time>2022-04-25T08:01:41Z</time>
      </trkpt>
      <trkpt lat="43.51936" lon="6.58428">
        <ele>56.7</ele>
        <time>2022-04-25T08:02:19Z</time>
      </trkpt>
      <trkpt lat="43.51938" lon="6.58415">
        <ele>56.8</ele>
        <time>2022-04-25T08:02:29Z</time>
      </trkpt>
      <trkpt lat="43.5194" lon="6.58403">
        <ele>56.3</ele>
        <time>2022-04-25T08:02:39Z</time>
      </trkpt>
      <trkpt lat="43.5194" lon="6.5839">
        <ele>55.6</ele>
        <time>2022-04-25T08:02:50Z</time>
      </trkpt>
      <trkpt lat="43.51942" lon="6.58377">
        <ele>55.2</ele>
        <time>2022-04-25T08:03:02Z</time>
      </trkpt>
      <trkpt lat="43.51944" lon="6.58364">
        <ele>55.2</ele>
        <time>2022-04-25T08:03:12Z</time>
      </trkpt>
      <trkpt lat="43.51947" lon="6.58352">
        <ele>55.1</ele>
        <time>2022-04-25T08:03:22Z</time>
      </trkpt>
      <trkpt lat="43.51948" lon="6.58339">
        <ele>54.8</ele>
        <time>2022-04-25T08:04:07Z</time>
      </trkpt>
      <trkpt lat="43.51949" lon="6.58326">
        <ele>55</ele>
        <time>2022-04-25T08:05:53Z</time>
      </trkpt>
      <trkpt lat="43.51951" lon="6.58313">
        <ele>54</ele>
        <time>2022-04-25T08:06:06Z</time>
      </trkpt>
      <trkpt lat="43.51947" lon="6.58302">
        <ele>53.6</ele>
        <time>2022-04-25T08:06:17Z</time>
      </trkpt>
      <trkpt lat="43.51942" lon="6.58291">
        <ele>53.6</ele>
        <time>2022-04-25T08:06:27Z</time>
      </trkpt>
      <trkpt lat="43.51934" lon="6.58284">
        <ele>53.4</ele>
        <time>2022-04-25T08:06:37Z</time>
      </trkpt>
      <trkpt lat="43.51927" lon="6.58276">
        <ele>53.2</ele>
        <time>2022-04-25T08:06:47Z</time>
      </trkpt>
      <trkpt lat="43.51922" lon="6.58265">
        <ele>53.5</ele>
        <time>2022-04-25T08:07:02Z</time>
      </trkpt>
      <trkpt lat="43.51924" lon="6.58252">
        <ele>53.5</ele>
        <time>2022-04-25T08:07:14Z</time>
      </trkpt>
      <trkpt lat="43.51925" lon="6.58239">
        <ele>53.7</ele>
        <time>2022-04-25T08:07:25Z</time>
      </trkpt>
      <trkpt lat="43.51928" lon="6.58228">
        <ele>54.1</ele>
        <time>2022-04-25T08:07:35Z</time>
      </trkpt>
      <trkpt lat="43.51933" lon="6.58215">
        <ele>53.7</ele>
        <time>2022-04-25T08:07:45Z</time>
      </trkpt>
      <trkpt lat="43.51937" lon="6.58203">
        <ele>53.9</ele>
        <time>2022-04-25T08:07:56Z</time>
      </trkpt>
      <trkpt lat="43.51942" lon="6.58192">
        <ele>54</ele>
        <time>2022-04-25T08:08:06Z</time>
      </trkpt>
      <trkpt lat="43.51945" lon="6.5818">
        <ele>54.4</ele>
        <time>2022-04-25T08:08:15Z</time>
      </trkpt>
      <trkpt lat="43.5195" lon="6.58169">
        <ele>54.6</ele>
        <time>2022-04-25T08:08:25Z</time>
      </trkpt>
      <trkpt lat="43.51955" lon="6.58157">
        <ele>55.1</ele>
        <time>2022-04-25T08:08:35Z</time>
      </trkpt>
      <trkpt lat="43.51957" lon="6.58144">
        <ele>54.8</ele>
        <time>2022-04-25T08:08:43Z</time>
      </trkpt>
      <trkpt lat="43.51961" lon="6.58132">
        <ele>54.9</ele>
        <time>2022-04-25T08:08:53Z</time>
      </trkpt>
      <trkpt lat="43.51968" lon="6.58123">
        <ele>54.7</ele>
        <time>2022-04-25T08:09:04Z</time>
      </trkpt>
      <trkpt lat="43.51975" lon="6.58114">
        <ele>55</ele>
        <time>2022-04-25T08:09:14Z</time>
      </trkpt>
      <trkpt lat="43.51981" lon="6.58105">
        <ele>55.1</ele>
        <time>2022-04-25T08:09:23Z</time>
      </trkpt>
      <trkpt lat="43.51985" lon="6.58092">
        <ele>54.9</ele>
        <time>2022-04-25T08:09:34Z</time>
      </trkpt>
      <trkpt lat="43.5199" lon="6.5808">
        <ele>54.5</ele>
        <time>2022-04-25T08:09:43Z</time>
      </trkpt>
      <trkpt lat="43.51997" lon="6.58071">
        <ele>54.5</ele>
        <time>2022-04-25T08:09:53Z</time>
      </trkpt>
      <trkpt lat="43.52002" lon="6.5806">
        <ele>54.6</ele>
        <time>2022-04-25T08:10:03Z</time>
      </trkpt>
      <trkpt lat="43.52008" lon="6.5805">
        <ele>54.5</ele>
        <time>2022-04-25T08:10:11Z</time>
      </trkpt>
      <trkpt lat="43.52014" lon="6.5804">
        <ele>55.1</ele>
        <time>2022-04-25T08:10:20Z</time>
      </trkpt>
      <trkpt lat="43.5202" lon="6.5803">
        <ele>55.5</ele>
        <time>2022-04-25T08:10:29Z</time>
      </trkpt>
      <trkpt lat="43.52026" lon="6.58021">
        <ele>55.4</ele>
        <time>2022-04-25T08:10:37Z</time>
      </trkpt>
      <trkpt lat="43.52033" lon="6.5801">
        <ele>55.2</ele>
        <time>2022-04-25T08:10:47Z</time>
      </trkpt>
      <trkpt lat="43.52039" lon="6.58001">
        <ele>55.3</ele>
        <time>2022-04-25T08:10:55Z</time>
      </trkpt>
      <trkpt lat="43.52046" lon="6.57992">
        <ele>55.3</ele>
        <time>2022-04-25T08:11:04Z</time>
      </trkpt>
      <trkpt lat="43.52052" lon="6.57982">
        <ele>55.5</ele>
        <time>2022-04-25T08:11:13Z</time>
      </trkpt>
      <trkpt lat="43.52058" lon="6.57972">
        <ele>55.8</ele>
        <time>2022-04-25T08:11:22Z</time>
      </trkpt>
      <trkpt lat="43.52065" lon="6.57962">
        <ele>55.8</ele>
        <time>2022-04-25T08:11:31Z</time>
      </trkpt>
      <trkpt lat="43.52071" lon="6.57952">
        <ele>56.3</ele>
        <time>2022-04-25T08:11:41Z</time>
      </trkpt>
      <trkpt lat="43.52078" lon="6.57942">
        <ele>56.6</ele>
        <time>2022-04-25T08:11:51Z</time>
      </trkpt>
      <trkpt lat="43.52086" lon="6.57934">
        <ele>56.4</ele>
        <time>2022-04-25T08:12:00Z</time>
      </trkpt>
      <trkpt lat="43.52092" lon="6.57925">
        <ele>56.4</ele>
        <time>2022-04-25T08:12:14Z</time>
      </trkpt>
      <trkpt lat="43.521" lon="6.57919">
        <ele>56.9</ele>
        <time>2022-04-25T08:12:23Z</time>
      </trkpt>
      <trkpt lat="43.52107" lon="6.57911">
        <ele>57.2</ele>
        <time>2022-04-25T08:12:32Z</time>
      </trkpt>
      <trkpt lat="43.52114" lon="6.57903">
        <ele>57.5</ele>
        <time>2022-04-25T08:12:41Z</time>
      </trkpt>
      <trkpt lat="43.5212" lon="6.57893">
        <ele>57.7</ele>
        <time>2022-04-25T08:12:49Z</time>
      </trkpt>
      <trkpt lat="43.52128" lon="6.57884">
        <ele>58.1</ele>
        <time>2022-04-25T08:12:59Z</time>
      </trkpt>
      <trkpt lat="43.52133" lon="6.57873">
        <ele>58.5</ele>
        <time>2022-04-25T08:13:08Z</time>
      </trkpt>
      <trkpt lat="43.52137" lon="6.57862">
        <ele>59</ele>
        <time>2022-04-25T08:13:19Z</time>
      </trkpt>
      <trkpt lat="43.52145" lon="6.57854">
        <ele>59</ele>
        <time>2022-04-25T08:13:29Z</time>
      </trkpt>
      <trkpt lat="43.52152" lon="6.57845">
        <ele>59.2</ele>
        <time>2022-04-25T08:13:39Z</time>
      </trkpt>
      <trkpt lat="43.52159" lon="6.57838">
        <ele>59.5</ele>
        <time>2022-04-25T08:13:48Z</time>
      </trkpt>
      <trkpt lat="43.52167" lon="6.5783">
        <ele>59.2</ele>
        <time>2022-04-25T08:13:59Z</time>
      </trkpt>
      <trkpt lat="43.52174" lon="6.57822">
        <ele>59.2</ele>
        <time>2022-04-25T08:14:11Z</time>
      </trkpt>
      <trkpt lat="43.52183" lon="6.57816">
        <ele>59.2</ele>
        <time>2022-04-25T08:14:21Z</time>
      </trkpt>
      <trkpt lat="43.52191" lon="6.5781">
        <ele>59.3</ele>
        <time>2022-04-25T08:14:32Z</time>
      </trkpt>
      <trkpt lat="43.522" lon="6.57805">
        <ele>59.7</ele>
        <time>2022-04-25T08:14:42Z</time>
      </trkpt>
      <trkpt lat="43.52208" lon="6.57798">
        <ele>60.1</ele>
        <time>2022-04-25T08:14:53Z</time>
      </trkpt>
      <trkpt lat="43.52217" lon="6.57795">
        <ele>60.4</ele>
        <time>2022-04-25T08:15:03Z</time>
      </trkpt>
      <trkpt lat="43.52226" lon="6.57793">
        <ele>60.3</ele>
        <time>2022-04-25T08:15:13Z</time>
      </trkpt>
      <trkpt lat="43.52236" lon="6.57794">
        <ele>60.4</ele>
        <time>2022-04-25T08:15:23Z</time>
      </trkpt>
      <trkpt lat="43.52245" lon="6.57792">
        <ele>59.9</ele>
        <time>2022-04-25T08:15:32Z</time>
      </trkpt>
      <trkpt lat="43.52253" lon="6.57787">
        <ele>59.5</ele>
        <time>2022-04-25T08:15:41Z</time>
      </trkpt>
      <trkpt lat="43.52262" lon="6.5778">
        <ele>59.4</ele>
        <time>2022-04-25T08:15:51Z</time>
      </trkpt>
      <trkpt lat="43.5227" lon="6.57773">
        <ele>59.3</ele>
        <time>2022-04-25T08:16:01Z</time>
      </trkpt>
      <trkpt lat="43.52279" lon="6.57768">
        <ele>59.3</ele>
        <time>2022-04-25T08:16:10Z</time>
      </trkpt>
      <trkpt lat="43.52288" lon="6.57762">
        <ele>58.8</ele>
        <time>2022-04-25T08:16:21Z</time>
      </trkpt>
      <trkpt lat="43.52295" lon="6.57753">
        <ele>58.4</ele>
        <time>2022-04-25T08:16:31Z</time>
      </trkpt>
      <trkpt lat="43.52302" lon="6.57745">
        <ele>57.9</ele>
        <time>2022-04-25T08:16:40Z</time>
      </trkpt>
      <trkpt lat="43.5231" lon="6.57739">
        <ele>57.2</ele>
        <time>2022-04-25T08:16:51Z</time>
      </trkpt>
      <trkpt lat="43.5232" lon="6.57737">
        <ele>57.2</ele>
        <time>2022-04-25T08:17:01Z</time>
      </trkpt>
      <trkpt lat="43.5233" lon="6.57735">
        <ele>57.1</ele>
        <time>2022-04-25T08:17:12Z</time>
      </trkpt>
      <trkpt lat="43.52339" lon="6.57734">
        <ele>57.7</ele>
        <time>2022-04-25T08:17:23Z</time>
      </trkpt>
      <trkpt lat="43.52349" lon="6.57733">
        <ele>57.4</ele>
        <time>2022-04-25T08:17:33Z</time>
      </trkpt>
      <trkpt lat="43.52358" lon="6.57731">
        <ele>57.2</ele>
        <time>2022-04-25T08:17:43Z</time>
      </trkpt>
      <trkpt lat="43.52367" lon="6.57729">
        <ele>57</ele>
        <time>2022-04-25T08:17:53Z</time>
      </trkpt>
      <trkpt lat="43.52376" lon="6.57728">
        <ele>57.3</ele>
        <time>2022-04-25T08:18:02Z</time>
      </trkpt>
      <trkpt lat="43.52385" lon="6.57725">
        <ele>57.7</ele>
        <time>2022-04-25T08:18:12Z</time>
      </trkpt>
      <trkpt lat="43.52395" lon="6.57722">
        <ele>57.5</ele>
        <time>2022-04-25T08:18:21Z</time>
      </trkpt>
      <trkpt lat="43.52405" lon="6.57722">
        <ele>57.3</ele>
        <time>2022-04-25T08:18:30Z</time>
      </trkpt>
      <trkpt lat="43.52414" lon="6.57726">
        <ele>57.8</ele>
        <time>2022-04-25T08:18:40Z</time>
      </trkpt>
      <trkpt lat="43.52424" lon="6.57728">
        <ele>57.9</ele>
        <time>2022-04-25T08:18:51Z</time>
      </trkpt>
      <trkpt lat="43.52434" lon="6.57731">
        <ele>58.1</ele>
        <time>2022-04-25T08:19:00Z</time>
      </trkpt>
      <trkpt lat="43.52443" lon="6.57732">
        <ele>58.2</ele>
        <time>2022-04-25T08:19:10Z</time>
      </trkpt>
      <trkpt lat="43.52453" lon="6.57734">
        <ele>58.5</ele>
        <time>2022-04-25T08:19:18Z</time>
      </trkpt>
      <trkpt lat="43.52461" lon="6.57739">
        <ele>58.3</ele>
        <time>2022-04-25T08:19:28Z</time>
      </trkpt>
      <trkpt lat="43.5247" lon="6.57742">
        <ele>58.4</ele>
        <time>2022-04-25T08:19:36Z</time>
      </trkpt>
      <trkpt lat="43.5248" lon="6.57744">
        <ele>58.6</ele>
        <time>2022-04-25T08:19:45Z</time>
      </trkpt>
      <trkpt lat="43.5249" lon="6.57744">
        <ele>58.6</ele>
        <time>2022-04-25T08:19:54Z</time>
      </trkpt>
      <trkpt lat="43.525" lon="6.57746">
        <ele>58.5</ele>
        <time>2022-04-25T08:20:04Z</time>
      </trkpt>
      <trkpt lat="43.5251" lon="6.57749">
        <ele>58.5</ele>
        <time>2022-04-25T08:20:13Z</time>
      </trkpt>
      <trkpt lat="43.52518" lon="6.57745">
        <ele>58.8</ele>
        <time>2022-04-25T08:20:40Z</time>
      </trkpt>
      <trkpt lat="43.52528" lon="6.57745">
        <ele>58</ele>
        <time>2022-04-25T08:21:01Z</time>
      </trkpt>
      <trkpt lat="43.52538" lon="6.57747">
        <ele>57.1</ele>
        <time>2022-04-25T08:21:11Z</time>
      </trkpt>
      <trkpt lat="43.52546" lon="6.57742">
        <ele>55.9</ele>
        <time>2022-04-25T08:21:41Z</time>
      </trkpt>
      <trkpt lat="43.52548" lon="6.57754">
        <ele>58.8</ele>
        <time>2022-04-25T08:22:46Z</time>
      </trkpt>
      <trkpt lat="43.52555" lon="6.57762">
        <ele>59.1</ele>
        <time>2022-04-25T08:27:50Z</time>
      </trkpt>
      <trkpt lat="43.52562" lon="6.57771">
        <ele>58.7</ele>
        <time>2022-04-25T08:28:27Z</time>
      </trkpt>
      <trkpt lat="43.52572" lon="6.57775">
        <ele>58.7</ele>
        <time>2022-04-25T08:28:58Z</time>
      </trkpt>
      <trkpt lat="43.5258" lon="6.57779">
        <ele>59</ele>
        <time>2022-04-25T08:29:08Z</time>
      </trkpt>
      <trkpt lat="43.52588" lon="6.57786">
        <ele>58.7</ele>
        <time>2022-04-25T08:29:20Z</time>
      </trkpt>
      <trkpt lat="43.52597" lon="6.57792">
        <ele>58.7</ele>
        <time>2022-04-25T08:29:31Z</time>
      </trkpt>
      <trkpt lat="43.52605" lon="6.578">
        <ele>58.6</ele>
        <time>2022-04-25T08:29:41Z</time>
      </trkpt>
      <trkpt lat="43.52612" lon="6.57808">
        <ele>59.2</ele>
        <time>2022-04-25T08:29:52Z</time>
      </trkpt>
      <trkpt lat="43.52617" lon="6.57819">
        <ele>59</ele>
        <time>2022-04-25T08:30:05Z</time>
      </trkpt>
      <trkpt lat="43.52625" lon="6.57826">
        <ele>59.2</ele>
        <time>2022-04-25T08:30:17Z</time>
      </trkpt>
      <trkpt lat="43.52632" lon="6.57834">
        <ele>59.1</ele>
        <time>2022-04-25T08:30:29Z</time>
      </trkpt>
      <trkpt lat="43.5264" lon="6.57842">
        <ele>59.4</ele>
        <time>2022-04-25T08:30:49Z</time>
      </trkpt>
      <trkpt lat="43.52649" lon="6.57838">
        <ele>58.6</ele>
        <time>2022-04-25T08:32:18Z</time>
      </trkpt>
      <trkpt lat="43.52651" lon="6.5785">
        <ele>59.4</ele>
        <time>2022-04-25T08:34:16Z</time>
      </trkpt>
      <trkpt lat="43.52654" lon="6.57862">
        <ele>60</ele>
        <time>2022-04-25T08:34:31Z</time>
      </trkpt>
      <trkpt lat="43.5266" lon="6.57872">
        <ele>61.2</ele>
        <time>2022-04-25T08:37:43Z</time>
      </trkpt>
      <trkpt lat="43.52669" lon="6.57877">
        <ele>61.3</ele>
        <time>2022-04-25T08:37:58Z</time>
      </trkpt>
      <trkpt lat="43.52678" lon="6.57876">
        <ele>61.9</ele>
        <time>2022-04-25T08:38:15Z</time>
      </trkpt>
      <trkpt lat="43.52687" lon="6.57877">
        <ele>61.9</ele>
        <time>2022-04-25T08:38:30Z</time>
      </trkpt>
      <trkpt lat="43.52692" lon="6.57888">
        <ele>64.1</ele>
        <time>2022-04-25T08:40:14Z</time>
      </trkpt>
      <trkpt lat="43.52696" lon="6.57899">
        <ele>67.8</ele>
        <time>2022-04-25T08:40:40Z</time>
      </trkpt>
      <trkpt lat="43.52701" lon="6.5791">
        <ele>69.6</ele>
        <time>2022-04-25T08:41:17Z</time>
      </trkpt>
      <trkpt lat="43.52707" lon="6.5792">
        <ele>71.8</ele>
        <time>2022-04-25T08:41:43Z</time>
      </trkpt>
      <trkpt lat="43.52711" lon="6.57931">
        <ele>74.3</ele>
        <time>2022-04-25T08:42:13Z</time>
      </trkpt>
      <trkpt lat="43.52719" lon="6.57938">
        <ele>76.9</ele>
        <time>2022-04-25T08:42:32Z</time>
      </trkpt>
      <trkpt lat="43.52727" lon="6.57944">
        <ele>78.6</ele>
        <time>2022-04-25T08:42:57Z</time>
      </trkpt>
      <trkpt lat="43.52734" lon="6.57953">
        <ele>80.4</ele>
        <time>2022-04-25T08:43:46Z</time>
      </trkpt>
      <trkpt lat="43.52739" lon="6.57964">
        <ele>83.2</ele>
        <time>2022-04-25T08:43:58Z</time>
      </trkpt>
      <trkpt lat="43.5274" lon="6.57977">
        <ele>86.6</ele>
        <time>2022-04-25T08:44:41Z</time>
      </trkpt>
      <trkpt lat="43.52741" lon="6.5799">
        <ele>88.2</ele>
        <time>2022-04-25T08:45:02Z</time>
      </trkpt>
      <trkpt lat="43.52742" lon="6.58003">
        <ele>88.9</ele>
        <time>2022-04-25T08:45:29Z</time>
      </trkpt>
      <trkpt lat="43.52738" lon="6.58014">
        <ele>90.2</ele>
        <time>2022-04-25T08:45:41Z</time>
      </trkpt>
      <trkpt lat="43.52739" lon="6.58027">
        <ele>92.3</ele>
        <time>2022-04-25T08:46:09Z</time>
      </trkpt>
      <trkpt lat="43.52744" lon="6.58037">
        <ele>93.1</ele>
        <time>2022-04-25T08:46:22Z</time>
      </trkpt>
      <trkpt lat="43.52744" lon="6.5805">
        <ele>94.9</ele>
        <time>2022-04-25T08:46:43Z</time>
      </trkpt>
      <trkpt lat="43.52745" lon="6.58063">
        <ele>96.8</ele>
        <time>2022-04-25T08:46:55Z</time>
      </trkpt>
      <trkpt lat="43.52744" lon="6.58075">
        <ele>98.5</ele>
        <time>2022-04-25T08:47:13Z</time>
      </trkpt>
      <trkpt lat="43.52742" lon="6.58087">
        <ele>99.1</ele>
        <time>2022-04-25T08:52:45Z</time>
      </trkpt>
      <trkpt lat="43.52739" lon="6.581">
        <ele>100.4</ele>
        <time>2022-04-25T08:53:07Z</time>
      </trkpt>
      <trkpt lat="43.52735" lon="6.5811">
        <ele>101.1</ele>
        <time>2022-04-25T08:54:04Z</time>
      </trkpt>
      <trkpt lat="43.52728" lon="6.5812">
        <ele>101.9</ele>
        <time>2022-04-25T08:54:41Z</time>
      </trkpt>
      <trkpt lat="43.52719" lon="6.58121">
        <ele>102.5</ele>
        <time>2022-04-25T08:54:52Z</time>
      </trkpt>
      <trkpt lat="43.52716" lon="6.58133">
        <ele>103.6</ele>
        <time>2022-04-25T08:55:07Z</time>
      </trkpt>
      <trkpt lat="43.52722" lon="6.58142">
        <ele>106.8</ele>
        <time>2022-04-25T08:55:49Z</time>
      </trkpt>
      <trkpt lat="43.52728" lon="6.58152">
        <ele>108.4</ele>
        <time>2022-04-25T08:56:08Z</time>
      </trkpt>
      <trkpt lat="43.52736" lon="6.58159">
        <ele>111.6</ele>
        <time>2022-04-25T08:56:31Z</time>
      </trkpt>
      <trkpt lat="43.52743" lon="6.58166">
        <ele>113.1</ele>
        <time>2022-04-25T08:59:38Z</time>
      </trkpt>
      <trkpt lat="43.52749" lon="6.58176">
        <ele>114.2</ele>
        <time>2022-04-25T09:00:34Z</time>
      </trkpt>
      <trkpt lat="43.52755" lon="6.58186">
        <ele>117.5</ele>
        <time>2022-04-25T09:00:59Z</time>
      </trkpt>
      <trkpt lat="43.52762" lon="6.58195">
        <ele>119.7</ele>
        <time>2022-04-25T09:02:03Z</time>
      </trkpt>
      <trkpt lat="43.52768" lon="6.58204">
        <ele>122.4</ele>
        <time>2022-04-25T09:02:37Z</time>
      </trkpt>
      <trkpt lat="43.52777" lon="6.58208">
        <ele>125</ele>
        <time>2022-04-25T09:02:53Z</time>
      </trkpt>
      <trkpt lat="43.52786" lon="6.5821">
        <ele>127.3</ele>
        <time>2022-04-25T09:03:14Z</time>
      </trkpt>
      <trkpt lat="43.52794" lon="6.58217">
        <ele>128.8</ele>
        <time>2022-04-25T09:03:34Z</time>
      </trkpt>
      <trkpt lat="43.528" lon="6.58227">
        <ele>131.1</ele>
        <time>2022-04-25T09:03:51Z</time>
      </trkpt>
      <trkpt lat="43.52802" lon="6.58239">
        <ele>133.8</ele>
        <time>2022-04-25T09:04:14Z</time>
      </trkpt>
      <trkpt lat="43.52803" lon="6.58252">
        <ele>135.1</ele>
        <time>2022-04-25T09:04:30Z</time>
      </trkpt>
      <trkpt lat="43.528" lon="6.58264">
        <ele>136.6</ele>
        <time>2022-04-25T09:04:48Z</time>
      </trkpt>
      <trkpt lat="43.52799" lon="6.58277">
        <ele>136.3</ele>
        <time>2022-04-25T09:05:01Z</time>
      </trkpt>
      <trkpt lat="43.52798" lon="6.5829">
        <ele>136.5</ele>
        <time>2022-04-25T09:05:15Z</time>
      </trkpt>
      <trkpt lat="43.52799" lon="6.58302">
        <ele>137.3</ele>
        <time>2022-04-25T09:05:29Z</time>
      </trkpt>
      <trkpt lat="43.52802" lon="6.58314">
        <ele>138.1</ele>
        <time>2022-04-25T09:05:41Z</time>
      </trkpt>
      <trkpt lat="43.52804" lon="6.58326">
        <ele>138.7</ele>
        <time>2022-04-25T09:05:53Z</time>
      </trkpt>
      <trkpt lat="43.528" lon="6.58338">
        <ele>139.1</ele>
        <time>2022-04-25T09:06:12Z</time>
      </trkpt>
      <trkpt lat="43.52793" lon="6.58347">
        <ele>139.6</ele>
        <time>2022-04-25T09:06:25Z</time>
      </trkpt>
      <trkpt lat="43.52795" lon="6.58359">
        <ele>140.7</ele>
        <time>2022-04-25T09:07:37Z</time>
      </trkpt>
      <trkpt lat="43.5279" lon="6.58349">
        <ele>140.4</ele>
        <time>2022-04-25T09:14:25Z</time>
      </trkpt>
      <trkpt lat="43.52781" lon="6.58343">
        <ele>140.2</ele>
        <time>2022-04-25T09:14:45Z</time>
      </trkpt>
      <trkpt lat="43.52773" lon="6.58339">
        <ele>140.4</ele>
        <time>2022-04-25T09:14:52Z</time>
      </trkpt>
      <trkpt lat="43.52764" lon="6.5834">
        <ele>139.1</ele>
        <time>2022-04-25T09:15:19Z</time>
      </trkpt>
      <trkpt lat="43.52755" lon="6.58345">
        <ele>139.8</ele>
        <time>2022-04-25T09:16:02Z</time>
      </trkpt>
      <trkpt lat="43.52747" lon="6.5835">
        <ele>141.4</ele>
        <time>2022-04-25T09:16:17Z</time>
      </trkpt>
      <trkpt lat="43.52738" lon="6.58352">
        <ele>143</ele>
        <time>2022-04-25T09:16:30Z</time>
      </trkpt>
      <trkpt lat="43.52728" lon="6.58353">
        <ele>145</ele>
        <time>2022-04-25T09:16:45Z</time>
      </trkpt>
      <trkpt lat="43.5272" lon="6.58358">
        <ele>146.7</ele>
        <time>2022-04-25T09:16:58Z</time>
      </trkpt>
      <trkpt lat="43.52712" lon="6.58365">
        <ele>147.5</ele>
        <time>2022-04-25T09:17:12Z</time>
      </trkpt>
      <trkpt lat="43.52704" lon="6.58372">
        <ele>149</ele>
        <time>2022-04-25T09:17:25Z</time>
      </trkpt>
      <trkpt lat="43.52696" lon="6.58379">
        <ele>150.8</ele>
        <time>2022-04-25T09:17:40Z</time>
      </trkpt>
      <trkpt lat="43.52687" lon="6.5838">
        <ele>152.6</ele>
        <time>2022-04-25T09:17:55Z</time>
      </trkpt>
      <trkpt lat="43.52677" lon="6.58384">
        <ele>154.2</ele>
        <time>2022-04-25T09:18:08Z</time>
      </trkpt>
      <trkpt lat="43.52668" lon="6.58387">
        <ele>156</ele>
        <time>2022-04-25T09:18:24Z</time>
      </trkpt>
      <trkpt lat="43.52659" lon="6.58387">
        <ele>157.8</ele>
        <time>2022-04-25T09:18:40Z</time>
      </trkpt>
      <trkpt lat="43.5265" lon="6.5839">
        <ele>159.4</ele>
        <time>2022-04-25T09:18:55Z</time>
      </trkpt>
      <trkpt lat="43.52642" lon="6.58397">
        <ele>161.2</ele>
        <time>2022-04-25T09:19:10Z</time>
      </trkpt>
      <trkpt lat="43.52638" lon="6.58409">
        <ele>162.9</ele>
        <time>2022-04-25T09:19:21Z</time>
      </trkpt>
      <trkpt lat="43.52637" lon="6.58422">
        <ele>163.9</ele>
        <time>2022-04-25T09:19:38Z</time>
      </trkpt>
      <trkpt lat="43.52642" lon="6.58432">
        <ele>165</ele>
        <time>2022-04-25T09:20:34Z</time>
      </trkpt>
      <trkpt lat="43.52646" lon="6.58444">
        <ele>166.7</ele>
        <time>2022-04-25T09:24:35Z</time>
      </trkpt>
      <trkpt lat="43.52649" lon="6.58456">
        <ele>169.3</ele>
        <time>2022-04-25T09:24:49Z</time>
      </trkpt>
      <trkpt lat="43.52653" lon="6.58467">
        <ele>172.7</ele>
        <time>2022-04-25T09:25:08Z</time>
      </trkpt>
      <trkpt lat="43.52655" lon="6.58479">
        <ele>174.9</ele>
        <time>2022-04-25T09:25:27Z</time>
      </trkpt>
      <trkpt lat="43.52658" lon="6.58491">
        <ele>177.7</ele>
        <time>2022-04-25T09:25:44Z</time>
      </trkpt>
      <trkpt lat="43.5266" lon="6.58504">
        <ele>181.4</ele>
        <time>2022-04-25T09:26:02Z</time>
      </trkpt>
      <trkpt lat="43.52659" lon="6.58517">
        <ele>183.9</ele>
        <time>2022-04-25T09:26:20Z</time>
      </trkpt>
      <trkpt lat="43.52657" lon="6.58529">
        <ele>186.2</ele>
        <time>2022-04-25T09:26:36Z</time>
      </trkpt>
      <trkpt lat="43.52657" lon="6.58542">
        <ele>190.7</ele>
        <time>2022-04-25T09:27:07Z</time>
      </trkpt>
      <trkpt lat="43.52664" lon="6.58551">
        <ele>194.1</ele>
        <time>2022-04-25T09:27:26Z</time>
      </trkpt>
      <trkpt lat="43.52672" lon="6.58558">
        <ele>197.4</ele>
        <time>2022-04-25T09:27:49Z</time>
      </trkpt>
      <trkpt lat="43.52681" lon="6.5856">
        <ele>198.9</ele>
        <time>2022-04-25T09:28:07Z</time>
      </trkpt>
      <trkpt lat="43.52689" lon="6.58565">
        <ele>203.1</ele>
        <time>2022-04-25T09:29:00Z</time>
      </trkpt>
      <trkpt lat="43.52696" lon="6.58574">
        <ele>206.9</ele>
        <time>2022-04-25T09:29:31Z</time>
      </trkpt>
      <trkpt lat="43.52703" lon="6.58582">
        <ele>210.8</ele>
        <time>2022-04-25T09:30:03Z</time>
      </trkpt>
      <trkpt lat="43.52708" lon="6.58592">
        <ele>211.8</ele>
        <time>2022-04-25T09:32:25Z</time>
      </trkpt>
      <trkpt lat="43.52707" lon="6.58605">
        <ele>217.9</ele>
        <time>2022-04-25T09:32:58Z</time>
      </trkpt>
      <trkpt lat="43.52704" lon="6.58616">
        <ele>221.9</ele>
        <time>2022-04-25T09:33:23Z</time>
      </trkpt>
      <trkpt lat="43.52705" lon="6.58629">
        <ele>226</ele>
        <time>2022-04-25T09:33:54Z</time>
      </trkpt>
      <trkpt lat="43.527" lon="6.58639">
        <ele>230.2</ele>
        <time>2022-04-25T09:34:16Z</time>
      </trkpt>
      <trkpt lat="43.52697" lon="6.58652">
        <ele>234.4</ele>
        <time>2022-04-25T09:34:43Z</time>
      </trkpt>
      <trkpt lat="43.52695" lon="6.58664">
        <ele>237.8</ele>
        <time>2022-04-25T09:35:01Z</time>
      </trkpt>
      <trkpt lat="43.52703" lon="6.5867">
        <ele>240.5</ele>
        <time>2022-04-25T09:35:18Z</time>
      </trkpt>
      <trkpt lat="43.52712" lon="6.58669">
        <ele>241</ele>
        <time>2022-04-25T09:35:37Z</time>
      </trkpt>
      <trkpt lat="43.52721" lon="6.58671">
        <ele>242.3</ele>
        <time>2022-04-25T09:37:54Z</time>
      </trkpt>
      <trkpt lat="43.52724" lon="6.58683">
        <ele>244.8</ele>
        <time>2022-04-25T09:38:18Z</time>
      </trkpt>
      <trkpt lat="43.52728" lon="6.58694">
        <ele>250</ele>
        <time>2022-04-25T09:38:57Z</time>
      </trkpt>
      <trkpt lat="43.52732" lon="6.58706">
        <ele>254.1</ele>
        <time>2022-04-25T09:39:32Z</time>
      </trkpt>
      <trkpt lat="43.52728" lon="6.58717">
        <ele>259.8</ele>
        <time>2022-04-25T09:39:56Z</time>
      </trkpt>
      <trkpt lat="43.52732" lon="6.58728">
        <ele>261.6</ele>
        <time>2022-04-25T09:41:41Z</time>
      </trkpt>
      <trkpt lat="43.52723" lon="6.58725">
        <ele>245.9</ele>
        <time>2022-04-25T10:22:55Z</time>
      </trkpt>
      <trkpt lat="43.52732" lon="6.58727">
        <ele>243.7</ele>
        <time>2022-04-25T10:28:47Z</time>
      </trkpt>
      <trkpt lat="43.52723" lon="6.58727">
        <ele>240.4</ele>
        <time>2022-04-25T10:46:41Z</time>
      </trkpt>
      <trkpt lat="43.52731" lon="6.5872">
        <ele>239.7</ele>
        <time>2022-04-25T10:51:06Z</time>
      </trkpt>
      <trkpt lat="43.52739" lon="6.58724">
        <ele>243.3</ele>
        <time>2022-04-25T10:52:36Z</time>
      </trkpt>
      <trkpt lat="43.52748" lon="6.58728">
        <ele>247.3</ele>
        <time>2022-04-25T10:53:54Z</time>
      </trkpt>
      <trkpt lat="43.52753" lon="6.58738">
        <ele>248.6</ele>
        <time>2022-04-25T10:54:32Z</time>
      </trkpt>
      <trkpt lat="43.52762" lon="6.58742">
        <ele>251.4</ele>
        <time>2022-04-25T10:54:54Z</time>
      </trkpt>
      <trkpt lat="43.52765" lon="6.58753">
        <ele>252.5</ele>
        <time>2022-04-25T10:56:22Z</time>
      </trkpt>
      <trkpt lat="43.52769" lon="6.58765">
        <ele>254.2</ele>
        <time>2022-04-25T10:57:30Z</time>
      </trkpt>
      <trkpt lat="43.52761" lon="6.58759">
        <ele>249.5</ele>
        <time>2022-04-25T11:01:26Z</time>
      </trkpt>
      <trkpt lat="43.52753" lon="6.58764">
        <ele>248.1</ele>
        <time>2022-04-25T11:02:29Z</time>
      </trkpt>
      <trkpt lat="43.52746" lon="6.58772">
        <ele>246.2</ele>
        <time>2022-04-25T11:02:55Z</time>
      </trkpt>
      <trkpt lat="43.52737" lon="6.58768">
        <ele>244.1</ele>
        <time>2022-04-25T11:03:11Z</time>
      </trkpt>
      <trkpt lat="43.52731" lon="6.58758">
        <ele>242.2</ele>
        <time>2022-04-25T11:04:45Z</time>
      </trkpt>
      <trkpt lat="43.52722" lon="6.58754">
        <ele>237.7</ele>
        <time>2022-04-25T11:05:29Z</time>
      </trkpt>
      <trkpt lat="43.52715" lon="6.58747">
        <ele>235.4</ele>
        <time>2022-04-25T11:06:01Z</time>
      </trkpt>
      <trkpt lat="43.52706" lon="6.58741">
        <ele>232.8</ele>
        <time>2022-04-25T11:06:29Z</time>
      </trkpt>
      <trkpt lat="43.52698" lon="6.58735">
        <ele>230.8</ele>
        <time>2022-04-25T11:06:43Z</time>
      </trkpt>
      <trkpt lat="43.52689" lon="6.58735">
        <ele>229</ele>
        <time>2022-04-25T11:07:01Z</time>
      </trkpt>
      <trkpt lat="43.52681" lon="6.58742">
        <ele>227.9</ele>
        <time>2022-04-25T11:07:12Z</time>
      </trkpt>
      <trkpt lat="43.52674" lon="6.58752">
        <ele>226.6</ele>
        <time>2022-04-25T11:07:23Z</time>
      </trkpt>
      <trkpt lat="43.52665" lon="6.58753">
        <ele>224.1</ele>
        <time>2022-04-25T11:07:37Z</time>
      </trkpt>
      <trkpt lat="43.52656" lon="6.58753">
        <ele>220.6</ele>
        <time>2022-04-25T11:08:14Z</time>
      </trkpt>
      <trkpt lat="43.52646" lon="6.58753">
        <ele>219.9</ele>
        <time>2022-04-25T11:09:00Z</time>
      </trkpt>
      <trkpt lat="43.52638" lon="6.58758">
        <ele>217.5</ele>
        <time>2022-04-25T11:09:30Z</time>
      </trkpt>
      <trkpt lat="43.5263" lon="6.58764">
        <ele>214.9</ele>
        <time>2022-04-25T11:09:42Z</time>
      </trkpt>
      <trkpt lat="43.52624" lon="6.58774">
        <ele>212.4</ele>
        <time>2022-04-25T11:10:03Z</time>
      </trkpt>
      <trkpt lat="43.52621" lon="6.58786">
        <ele>211.3</ele>
        <time>2022-04-25T11:10:24Z</time>
      </trkpt>
      <trkpt lat="43.52619" lon="6.58799">
        <ele>208.8</ele>
        <time>2022-04-25T11:10:53Z</time>
      </trkpt>
      <trkpt lat="43.52616" lon="6.58811">
        <ele>206.6</ele>
        <time>2022-04-25T11:11:10Z</time>
      </trkpt>
      <trkpt lat="43.52613" lon="6.58823">
        <ele>204.6</ele>
        <time>2022-04-25T11:11:35Z</time>
      </trkpt>
      <trkpt lat="43.52608" lon="6.58834">
        <ele>202.3</ele>
        <time>2022-04-25T11:11:55Z</time>
      </trkpt>
      <trkpt lat="43.52601" lon="6.58842">
        <ele>201.4</ele>
        <time>2022-04-25T11:12:18Z</time>
      </trkpt>
      <trkpt lat="43.52593" lon="6.5885">
        <ele>199.9</ele>
        <time>2022-04-25T11:12:32Z</time>
      </trkpt>
      <trkpt lat="43.52585" lon="6.58856">
        <ele>197.1</ele>
        <time>2022-04-25T11:12:47Z</time>
      </trkpt>
      <trkpt lat="43.52579" lon="6.58865">
        <ele>194.7</ele>
        <time>2022-04-25T11:13:08Z</time>
      </trkpt>
      <trkpt lat="43.5257" lon="6.58869">
        <ele>193</ele>
        <time>2022-04-25T11:13:30Z</time>
      </trkpt>
      <trkpt lat="43.52564" lon="6.58879">
        <ele>190.5</ele>
        <time>2022-04-25T11:13:51Z</time>
      </trkpt>
      <trkpt lat="43.52559" lon="6.58889">
        <ele>188.4</ele>
        <time>2022-04-25T11:14:08Z</time>
      </trkpt>
      <trkpt lat="43.52557" lon="6.58902">
        <ele>186.1</ele>
        <time>2022-04-25T11:14:34Z</time>
      </trkpt>
      <trkpt lat="43.52551" lon="6.58912">
        <ele>183.4</ele>
        <time>2022-04-25T11:14:56Z</time>
      </trkpt>
      <trkpt lat="43.52544" lon="6.5892">
        <ele>181.5</ele>
        <time>2022-04-25T11:15:56Z</time>
      </trkpt>
      <trkpt lat="43.5254" lon="6.58931">
        <ele>179</ele>
        <time>2022-04-25T11:17:15Z</time>
      </trkpt>
      <trkpt lat="43.5254" lon="6.58944">
        <ele>177.6</ele>
        <time>2022-04-25T11:17:39Z</time>
      </trkpt>
      <trkpt lat="43.52539" lon="6.58957">
        <ele>175.3</ele>
        <time>2022-04-25T11:18:16Z</time>
      </trkpt>
      <trkpt lat="43.52545" lon="6.58966">
        <ele>174.2</ele>
        <time>2022-04-25T11:19:01Z</time>
      </trkpt>
      <trkpt lat="43.52545" lon="6.58979">
        <ele>174.1</ele>
        <time>2022-04-25T11:23:06Z</time>
      </trkpt>
      <trkpt lat="43.5254" lon="6.5899">
        <ele>172.3</ele>
        <time>2022-04-25T11:23:25Z</time>
      </trkpt>
      <trkpt lat="43.52536" lon="6.59002">
        <ele>171.6</ele>
        <time>2022-04-25T11:23:45Z</time>
      </trkpt>
      <trkpt lat="43.52529" lon="6.5901">
        <ele>169.9</ele>
        <time>2022-04-25T11:24:03Z</time>
      </trkpt>
      <trkpt lat="43.52528" lon="6.59023">
        <ele>168.3</ele>
        <time>2022-04-25T11:24:20Z</time>
      </trkpt>
      <trkpt lat="43.52528" lon="6.59036">
        <ele>166.7</ele>
        <time>2022-04-25T11:24:39Z</time>
      </trkpt>
      <trkpt lat="43.52526" lon="6.59049">
        <ele>164.7</ele>
        <time>2022-04-25T11:25:03Z</time>
      </trkpt>
      <trkpt lat="43.52524" lon="6.5906">
        <ele>163.4</ele>
        <time>2022-04-25T11:25:16Z</time>
      </trkpt>
      <trkpt lat="43.52523" lon="6.59073">
        <ele>162.5</ele>
        <time>2022-04-25T11:25:32Z</time>
      </trkpt>
      <trkpt lat="43.5252" lon="6.59086">
        <ele>161.3</ele>
        <time>2022-04-25T11:25:47Z</time>
      </trkpt>
      <trkpt lat="43.52518" lon="6.59099">
        <ele>159.7</ele>
        <time>2022-04-25T11:26:00Z</time>
      </trkpt>
      <trkpt lat="43.52516" lon="6.59111">
        <ele>158.7</ele>
        <time>2022-04-25T11:26:21Z</time>
      </trkpt>
      <trkpt lat="43.52514" lon="6.59123">
        <ele>157.2</ele>
        <time>2022-04-25T11:26:38Z</time>
      </trkpt>
      <trkpt lat="43.52512" lon="6.59136">
        <ele>155.6</ele>
        <time>2022-04-25T11:27:17Z</time>
      </trkpt>
      <trkpt lat="43.52509" lon="6.59148">
        <ele>152.9</ele>
        <time>2022-04-25T11:27:50Z</time>
      </trkpt>
      <trkpt lat="43.52505" lon="6.5916">
        <ele>151.2</ele>
        <time>2022-04-25T11:28:06Z</time>
      </trkpt>
      <trkpt lat="43.52502" lon="6.59172">
        <ele>150.2</ele>
        <time>2022-04-25T11:28:30Z</time>
      </trkpt>
      <trkpt lat="43.52505" lon="6.59184">
        <ele>149.7</ele>
        <time>2022-04-25T11:29:07Z</time>
      </trkpt>
      <trkpt lat="43.52507" lon="6.59196">
        <ele>149.4</ele>
        <time>2022-04-25T11:29:18Z</time>
      </trkpt>
      <trkpt lat="43.52513" lon="6.59207">
        <ele>150.1</ele>
        <time>2022-04-25T11:29:29Z</time>
      </trkpt>
      <trkpt lat="43.52516" lon="6.59218">
        <ele>150.2</ele>
        <time>2022-04-25T11:29:39Z</time>
      </trkpt>
      <trkpt lat="43.5252" lon="6.5923">
        <ele>149.9</ele>
        <time>2022-04-25T11:29:48Z</time>
      </trkpt>
      <trkpt lat="43.52523" lon="6.59243">
        <ele>149.6</ele>
        <time>2022-04-25T11:29:59Z</time>
      </trkpt>
      <trkpt lat="43.52525" lon="6.59256">
        <ele>149.1</ele>
        <time>2022-04-25T11:30:11Z</time>
      </trkpt>
      <trkpt lat="43.52528" lon="6.59269">
        <ele>148.9</ele>
        <time>2022-04-25T11:30:23Z</time>
      </trkpt>
      <trkpt lat="43.5253" lon="6.59282">
        <ele>148</ele>
        <time>2022-04-25T11:30:34Z</time>
      </trkpt>
      <trkpt lat="43.52533" lon="6.59294">
        <ele>146.9</ele>
        <time>2022-04-25T11:30:45Z</time>
      </trkpt>
      <trkpt lat="43.52536" lon="6.59306">
        <ele>146</ele>
        <time>2022-04-25T11:30:56Z</time>
      </trkpt>
      <trkpt lat="43.5254" lon="6.59318">
        <ele>144.9</ele>
        <time>2022-04-25T11:31:08Z</time>
      </trkpt>
      <trkpt lat="43.52541" lon="6.59331">
        <ele>144.4</ele>
        <time>2022-04-25T11:31:20Z</time>
      </trkpt>
      <trkpt lat="43.52543" lon="6.59344">
        <ele>143.5</ele>
        <time>2022-04-25T11:31:31Z</time>
      </trkpt>
      <trkpt lat="43.52545" lon="6.59357">
        <ele>143.7</ele>
        <time>2022-04-25T11:31:44Z</time>
      </trkpt>
      <trkpt lat="43.52548" lon="6.5937">
        <ele>143</ele>
        <time>2022-04-25T11:31:57Z</time>
      </trkpt>
      <trkpt lat="43.5255" lon="6.59382">
        <ele>142.5</ele>
        <time>2022-04-25T11:32:10Z</time>
      </trkpt>
      <trkpt lat="43.52552" lon="6.59395">
        <ele>142.1</ele>
        <time>2022-04-25T11:32:24Z</time>
      </trkpt>
      <trkpt lat="43.52553" lon="6.59408">
        <ele>142.9</ele>
        <time>2022-04-25T11:32:37Z</time>
      </trkpt>
      <trkpt lat="43.52555" lon="6.5942">
        <ele>143.3</ele>
        <time>2022-04-25T11:32:51Z</time>
      </trkpt>
      <trkpt lat="43.52556" lon="6.59433">
        <ele>143.6</ele>
        <time>2022-04-25T11:33:03Z</time>
      </trkpt>
      <trkpt lat="43.52558" lon="6.59445">
        <ele>144.3</ele>
        <time>2022-04-25T11:33:16Z</time>
      </trkpt>
      <trkpt lat="43.52558" lon="6.59458">
        <ele>144.8</ele>
        <time>2022-04-25T11:33:32Z</time>
      </trkpt>
      <trkpt lat="43.5256" lon="6.5947">
        <ele>144.8</ele>
        <time>2022-04-25T11:33:46Z</time>
      </trkpt>
      <trkpt lat="43.52561" lon="6.59484">
        <ele>144.7</ele>
        <time>2022-04-25T11:34:01Z</time>
      </trkpt>
      <trkpt lat="43.52563" lon="6.59496">
        <ele>143.7</ele>
        <time>2022-04-25T11:34:16Z</time>
      </trkpt>
      <trkpt lat="43.52562" lon="6.59509">
        <ele>142.2</ele>
        <time>2022-04-25T11:35:19Z</time>
      </trkpt>
      <trkpt lat="43.52566" lon="6.5952">
        <ele>140.8</ele>
        <time>2022-04-25T11:36:13Z</time>
      </trkpt>
      <trkpt lat="43.52571" lon="6.59531">
        <ele>138.8</ele>
        <time>2022-04-25T11:36:32Z</time>
      </trkpt>
      <trkpt lat="43.52576" lon="6.59542">
        <ele>137.3</ele>
        <time>2022-04-25T11:36:52Z</time>
      </trkpt>
      <trkpt lat="43.5258" lon="6.59553">
        <ele>136.8</ele>
        <time>2022-04-25T11:38:23Z</time>
      </trkpt>
      <trkpt lat="43.52585" lon="6.59563">
        <ele>135</ele>
        <time>2022-04-25T11:40:45Z</time>
      </trkpt>
      <trkpt lat="43.52585" lon="6.59576">
        <ele>134</ele>
        <time>2022-04-25T11:41:06Z</time>
      </trkpt>
      <trkpt lat="43.52587" lon="6.59563">
        <ele>133.9</ele>
        <time>2022-04-25T11:41:29Z</time>
      </trkpt>
      <trkpt lat="43.52583" lon="6.59551">
        <ele>135.2</ele>
        <time>2022-04-25T11:41:40Z</time>
      </trkpt>
      <trkpt lat="43.52586" lon="6.59564">
        <ele>134.2</ele>
        <time>2022-04-25T11:43:57Z</time>
      </trkpt>
      <trkpt lat="43.52583" lon="6.59577">
        <ele>134</ele>
        <time>2022-04-25T11:44:07Z</time>
      </trkpt>
      <trkpt lat="43.52578" lon="6.59588">
        <ele>132.7</ele>
        <time>2022-04-25T11:44:19Z</time>
      </trkpt>
      <trkpt lat="43.5257" lon="6.59593">
        <ele>132.4</ele>
        <time>2022-04-25T11:44:27Z</time>
      </trkpt>
      <trkpt lat="43.52563" lon="6.59603">
        <ele>131.8</ele>
        <time>2022-04-25T11:44:35Z</time>
      </trkpt>
      <trkpt lat="43.5256" lon="6.59616">
        <ele>131.4</ele>
        <time>2022-04-25T11:44:43Z</time>
      </trkpt>
      <trkpt lat="43.52554" lon="6.59625">
        <ele>131.4</ele>
        <time>2022-04-25T11:44:50Z</time>
      </trkpt>
      <trkpt lat="43.52548" lon="6.59636">
        <ele>131.7</ele>
        <time>2022-04-25T11:44:58Z</time>
      </trkpt>
      <trkpt lat="43.52541" lon="6.59646">
        <ele>131.9</ele>
        <time>2022-04-25T11:45:06Z</time>
      </trkpt>
      <trkpt lat="43.52534" lon="6.59655">
        <ele>131.3</ele>
        <time>2022-04-25T11:45:15Z</time>
      </trkpt>
      <trkpt lat="43.52533" lon="6.5967">
        <ele>130.2</ele>
        <time>2022-04-25T11:45:25Z</time>
      </trkpt>
      <trkpt lat="43.52527" lon="6.5968">
        <ele>130.2</ele>
        <time>2022-04-25T11:45:31Z</time>
      </trkpt>
      <trkpt lat="43.5252" lon="6.59689">
        <ele>129.7</ele>
        <time>2022-04-25T11:45:39Z</time>
      </trkpt>
      <trkpt lat="43.52515" lon="6.597">
        <ele>129</ele>
        <time>2022-04-25T11:45:47Z</time>
      </trkpt>
      <trkpt lat="43.52509" lon="6.59709">
        <ele>128.9</ele>
        <time>2022-04-25T11:45:55Z</time>
      </trkpt>
      <trkpt lat="43.52504" lon="6.59721">
        <ele>128.7</ele>
        <time>2022-04-25T11:46:03Z</time>
      </trkpt>
      <trkpt lat="43.525" lon="6.59732">
        <ele>128.5</ele>
        <time>2022-04-25T11:46:10Z</time>
      </trkpt>
      <trkpt lat="43.52496" lon="6.59743">
        <ele>127.8</ele>
        <time>2022-04-25T11:46:18Z</time>
      </trkpt>
      <trkpt lat="43.52494" lon="6.59755">
        <ele>126.3</ele>
        <time>2022-04-25T11:46:32Z</time>
      </trkpt>
      <trkpt lat="43.52489" lon="6.59767">
        <ele>125.4</ele>
        <time>2022-04-25T11:46:45Z</time>
      </trkpt>
      <trkpt lat="43.52487" lon="6.59779">
        <ele>124.8</ele>
        <time>2022-04-25T11:46:57Z</time>
      </trkpt>
      <trkpt lat="43.52483" lon="6.59791">
        <ele>124.6</ele>
        <time>2022-04-25T11:47:50Z</time>
      </trkpt>
      <trkpt lat="43.52479" lon="6.59779">
        <ele>121.6</ele>
        <time>2022-04-25T11:48:26Z</time>
      </trkpt>
      <trkpt lat="43.52477" lon="6.59766">
        <ele>121.1</ele>
        <time>2022-04-25T11:48:41Z</time>
      </trkpt>
      <trkpt lat="43.52473" lon="6.59755">
        <ele>120.4</ele>
        <time>2022-04-25T11:48:56Z</time>
      </trkpt>
      <trkpt lat="43.52468" lon="6.59745">
        <ele>119.9</ele>
        <time>2022-04-25T11:49:13Z</time>
      </trkpt>
      <trkpt lat="43.52464" lon="6.59733">
        <ele>118.9</ele>
        <time>2022-04-25T11:49:41Z</time>
      </trkpt>
      <trkpt lat="43.52462" lon="6.59721">
        <ele>118.1</ele>
        <time>2022-04-25T11:52:05Z</time>
      </trkpt>
      <trkpt lat="43.52455" lon="6.59712">
        <ele>118</ele>
        <time>2022-04-25T11:52:27Z</time>
      </trkpt>
      <trkpt lat="43.52445" lon="6.59712">
        <ele>116.5</ele>
        <time>2022-04-25T11:52:41Z</time>
      </trkpt>
      <trkpt lat="43.52438" lon="6.59718">
        <ele>115.4</ele>
        <time>2022-04-25T11:52:55Z</time>
      </trkpt>
      <trkpt lat="43.52432" lon="6.59729">
        <ele>114.3</ele>
        <time>2022-04-25T11:53:07Z</time>
      </trkpt>
      <trkpt lat="43.52428" lon="6.5974">
        <ele>113</ele>
        <time>2022-04-25T11:53:18Z</time>
      </trkpt>
      <trkpt lat="43.52425" lon="6.59752">
        <ele>112.9</ele>
        <time>2022-04-25T11:53:39Z</time>
      </trkpt>
      <trkpt lat="43.5242" lon="6.59764">
        <ele>111.8</ele>
        <time>2022-04-25T11:53:55Z</time>
      </trkpt>
      <trkpt lat="43.52418" lon="6.59776">
        <ele>110.6</ele>
        <time>2022-04-25T11:54:07Z</time>
      </trkpt>
      <trkpt lat="43.52415" lon="6.59788">
        <ele>109.1</ele>
        <time>2022-04-25T11:54:21Z</time>
      </trkpt>
      <trkpt lat="43.52412" lon="6.59801">
        <ele>108.9</ele>
        <time>2022-04-25T11:54:34Z</time>
      </trkpt>
      <trkpt lat="43.5241" lon="6.59813">
        <ele>108.3</ele>
        <time>2022-04-25T11:54:46Z</time>
      </trkpt>
      <trkpt lat="43.52408" lon="6.59826">
        <ele>107.6</ele>
        <time>2022-04-25T11:54:59Z</time>
      </trkpt>
      <trkpt lat="43.52408" lon="6.59839">
        <ele>107</ele>
        <time>2022-04-25T11:55:11Z</time>
      </trkpt>
      <trkpt lat="43.52407" lon="6.59852">
        <ele>106.6</ele>
        <time>2022-04-25T11:55:30Z</time>
      </trkpt>
      <trkpt lat="43.52405" lon="6.59864">
        <ele>105.6</ele>
        <time>2022-04-25T11:55:46Z</time>
      </trkpt>
      <trkpt lat="43.52399" lon="6.59875">
        <ele>104.3</ele>
        <time>2022-04-25T11:56:03Z</time>
      </trkpt>
      <trkpt lat="43.52392" lon="6.59885">
        <ele>104.1</ele>
        <time>2022-04-25T11:56:19Z</time>
      </trkpt>
      <trkpt lat="43.52383" lon="6.59892">
        <ele>104.1</ele>
        <time>2022-04-25T11:56:28Z</time>
      </trkpt>
      <trkpt lat="43.52375" lon="6.59897">
        <ele>103.6</ele>
        <time>2022-04-25T11:56:41Z</time>
      </trkpt>
      <trkpt lat="43.52368" lon="6.59905">
        <ele>102.9</ele>
        <time>2022-04-25T11:56:56Z</time>
      </trkpt>
      <trkpt lat="43.52362" lon="6.59915">
        <ele>101.9</ele>
        <time>2022-04-25T11:57:15Z</time>
      </trkpt>
      <trkpt lat="43.52354" lon="6.59921">
        <ele>100.2</ele>
        <time>2022-04-25T11:57:35Z</time>
      </trkpt>
      <trkpt lat="43.52345" lon="6.59924">
        <ele>99.6</ele>
        <time>2022-04-25T11:57:51Z</time>
      </trkpt>
      <trkpt lat="43.52337" lon="6.5993">
        <ele>98.3</ele>
        <time>2022-04-25T11:59:40Z</time>
      </trkpt>
      <trkpt lat="43.52331" lon="6.5994">
        <ele>97.8</ele>
        <time>2022-04-25T12:02:43Z</time>
      </trkpt>
      <trkpt lat="43.52338" lon="6.5995">
        <ele>97.9</ele>
        <time>2022-04-25T12:02:56Z</time>
      </trkpt>
      <trkpt lat="43.52342" lon="6.59962">
        <ele>97.4</ele>
        <time>2022-04-25T12:03:09Z</time>
      </trkpt>
      <trkpt lat="43.52346" lon="6.59973">
        <ele>98.1</ele>
        <time>2022-04-25T12:03:23Z</time>
      </trkpt>
      <trkpt lat="43.52353" lon="6.59982">
        <ele>99</ele>
        <time>2022-04-25T12:03:33Z</time>
      </trkpt>
      <trkpt lat="43.52362" lon="6.59988">
        <ele>99.8</ele>
        <time>2022-04-25T12:03:47Z</time>
      </trkpt>
      <trkpt lat="43.52367" lon="6.6">
        <ele>99.6</ele>
        <time>2022-04-25T12:03:56Z</time>
      </trkpt>
      <trkpt lat="43.52367" lon="6.60013">
        <ele>99.7</ele>
        <time>2022-04-25T12:04:05Z</time>
      </trkpt>
      <trkpt lat="43.52364" lon="6.60025">
        <ele>100.7</ele>
        <time>2022-04-25T12:04:14Z</time>
      </trkpt>
      <trkpt lat="43.5236" lon="6.60038">
        <ele>101.6</ele>
        <time>2022-04-25T12:04:24Z</time>
      </trkpt>
      <trkpt lat="43.52358" lon="6.60051">
        <ele>102.6</ele>
        <time>2022-04-25T12:04:31Z</time>
      </trkpt>
      <trkpt lat="43.52358" lon="6.60064">
        <ele>103.3</ele>
        <time>2022-04-25T12:04:41Z</time>
      </trkpt>
      <trkpt lat="43.52361" lon="6.60077">
        <ele>103.7</ele>
        <time>2022-04-25T12:04:53Z</time>
      </trkpt>
      <trkpt lat="43.52363" lon="6.60089">
        <ele>104.8</ele>
        <time>2022-04-25T12:05:03Z</time>
      </trkpt>
      <trkpt lat="43.52369" lon="6.60099">
        <ele>105.1</ele>
        <time>2022-04-25T12:05:12Z</time>
      </trkpt>
      <trkpt lat="43.52376" lon="6.60108">
        <ele>105</ele>
        <time>2022-04-25T12:05:23Z</time>
      </trkpt>
      <trkpt lat="43.52385" lon="6.60112">
        <ele>103.5</ele>
        <time>2022-04-25T12:05:56Z</time>
      </trkpt>
      <trkpt lat="43.52393" lon="6.60117">
        <ele>103</ele>
        <time>2022-04-25T12:06:05Z</time>
      </trkpt>
      <trkpt lat="43.524" lon="6.60126">
        <ele>102.1</ele>
        <time>2022-04-25T12:06:15Z</time>
      </trkpt>
      <trkpt lat="43.52404" lon="6.60138">
        <ele>101.6</ele>
        <time>2022-04-25T12:07:04Z</time>
      </trkpt>
      <trkpt lat="43.52413" lon="6.60138">
        <ele>102.2</ele>
        <time>2022-04-25T12:08:27Z</time>
      </trkpt>
      <trkpt lat="43.52404" lon="6.60138">
        <ele>102.1</ele>
        <time>2022-04-25T12:09:59Z</time>
      </trkpt>
      <trkpt lat="43.52395" lon="6.60143">
        <ele>101.4</ele>
        <time>2022-04-25T12:10:12Z</time>
      </trkpt>
      <trkpt lat="43.52385" lon="6.60147">
        <ele>101.6</ele>
        <time>2022-04-25T12:10:25Z</time>
      </trkpt>
      <trkpt lat="43.52376" lon="6.60152">
        <ele>102.5</ele>
        <time>2022-04-25T12:10:36Z</time>
      </trkpt>
      <trkpt lat="43.52369" lon="6.60159">
        <ele>103.3</ele>
        <time>2022-04-25T12:10:46Z</time>
      </trkpt>
      <trkpt lat="43.52367" lon="6.60172">
        <ele>103.6</ele>
        <time>2022-04-25T12:12:18Z</time>
      </trkpt>
      <trkpt lat="43.52363" lon="6.60184">
        <ele>103.3</ele>
        <time>2022-04-25T12:12:27Z</time>
      </trkpt>
      <trkpt lat="43.52358" lon="6.60194">
        <ele>102.9</ele>
        <time>2022-04-25T12:12:35Z</time>
      </trkpt>
      <trkpt lat="43.52353" lon="6.60206">
        <ele>102.5</ele>
        <time>2022-04-25T12:12:44Z</time>
      </trkpt>
      <trkpt lat="43.52348" lon="6.60218">
        <ele>102.3</ele>
        <time>2022-04-25T12:12:53Z</time>
      </trkpt>
      <trkpt lat="43.52343" lon="6.60228">
        <ele>103.1</ele>
        <time>2022-04-25T12:13:02Z</time>
      </trkpt>
      <trkpt lat="43.52338" lon="6.60239">
        <ele>103.2</ele>
        <time>2022-04-25T12:13:12Z</time>
      </trkpt>
      <trkpt lat="43.52335" lon="6.60251">
        <ele>103</ele>
        <time>2022-04-25T12:13:23Z</time>
      </trkpt>
      <trkpt lat="43.52335" lon="6.60239">
        <ele>103.2</ele>
        <time>2022-04-25T12:15:49Z</time>
      </trkpt>
      <trkpt lat="43.52328" lon="6.6023">
        <ele>102.5</ele>
        <time>2022-04-25T12:17:44Z</time>
      </trkpt>
      <trkpt lat="43.52325" lon="6.60218">
        <ele>100.3</ele>
        <time>2022-04-25T12:18:01Z</time>
      </trkpt>
      <trkpt lat="43.5232" lon="6.60207">
        <ele>99.5</ele>
        <time>2022-04-25T12:18:11Z</time>
      </trkpt>
      <trkpt lat="43.5231" lon="6.60208">
        <ele>99.2</ele>
        <time>2022-04-25T12:18:23Z</time>
      </trkpt>
      <trkpt lat="43.52301" lon="6.6021">
        <ele>99.1</ele>
        <time>2022-04-25T12:18:34Z</time>
      </trkpt>
      <trkpt lat="43.52291" lon="6.6021">
        <ele>98.6</ele>
        <time>2022-04-25T12:18:46Z</time>
      </trkpt>
      <trkpt lat="43.52281" lon="6.60211">
        <ele>98</ele>
        <time>2022-04-25T12:18:59Z</time>
      </trkpt>
      <trkpt lat="43.52273" lon="6.60206">
        <ele>97.5</ele>
        <time>2022-04-25T12:19:14Z</time>
      </trkpt>
      <trkpt lat="43.52264" lon="6.60201">
        <ele>97.6</ele>
        <time>2022-04-25T12:19:30Z</time>
      </trkpt>
      <trkpt lat="43.52255" lon="6.60197">
        <ele>97.4</ele>
        <time>2022-04-25T12:19:40Z</time>
      </trkpt>
      <trkpt lat="43.52246" lon="6.60194">
        <ele>96.7</ele>
        <time>2022-04-25T12:19:49Z</time>
      </trkpt>
      <trkpt lat="43.52238" lon="6.60191">
        <ele>96.6</ele>
        <time>2022-04-25T12:20:01Z</time>
      </trkpt>
      <trkpt lat="43.52229" lon="6.60188">
        <ele>96.1</ele>
        <time>2022-04-25T12:20:13Z</time>
      </trkpt>
      <trkpt lat="43.5222" lon="6.60186">
        <ele>95.6</ele>
        <time>2022-04-25T12:20:24Z</time>
      </trkpt>
      <trkpt lat="43.5221" lon="6.60185">
        <ele>95.5</ele>
        <time>2022-04-25T12:20:35Z</time>
      </trkpt>
      <trkpt lat="43.52201" lon="6.60184">
        <ele>95.1</ele>
        <time>2022-04-25T12:20:45Z</time>
      </trkpt>
      <trkpt lat="43.52192" lon="6.60181">
        <ele>94.8</ele>
        <time>2022-04-25T12:20:55Z</time>
      </trkpt>
      <trkpt lat="43.52182" lon="6.60179">
        <ele>94.5</ele>
        <time>2022-04-25T12:21:05Z</time>
      </trkpt>
      <trkpt lat="43.52172" lon="6.60179">
        <ele>94.4</ele>
        <time>2022-04-25T12:21:17Z</time>
      </trkpt>
      <trkpt lat="43.52162" lon="6.60178">
        <ele>94.7</ele>
        <time>2022-04-25T12:21:28Z</time>
      </trkpt>
      <trkpt lat="43.52153" lon="6.60178">
        <ele>94.4</ele>
        <time>2022-04-25T12:21:38Z</time>
      </trkpt>
      <trkpt lat="43.52143" lon="6.60178">
        <ele>94.4</ele>
        <time>2022-04-25T12:21:48Z</time>
      </trkpt>
      <trkpt lat="43.52134" lon="6.60179">
        <ele>94.6</ele>
        <time>2022-04-25T12:21:58Z</time>
      </trkpt>
      <trkpt lat="43.52124" lon="6.60179">
        <ele>95</ele>
        <time>2022-04-25T12:22:09Z</time>
      </trkpt>
      <trkpt lat="43.52115" lon="6.6018">
        <ele>95.1</ele>
        <time>2022-04-25T12:22:20Z</time>
      </trkpt>
      <trkpt lat="43.52105" lon="6.60182">
        <ele>95.6</ele>
        <time>2022-04-25T12:22:30Z</time>
      </trkpt>
      <trkpt lat="43.52096" lon="6.60183">
        <ele>96.2</ele>
        <time>2022-04-25T12:22:42Z</time>
      </trkpt>
      <trkpt lat="43.52087" lon="6.60184">
        <ele>97</ele>
        <time>2022-04-25T12:22:53Z</time>
      </trkpt>
      <trkpt lat="43.52078" lon="6.60189">
        <ele>98.5</ele>
        <time>2022-04-25T12:24:02Z</time>
      </trkpt>
      <trkpt lat="43.52069" lon="6.60188">
        <ele>98.8</ele>
        <time>2022-04-25T12:25:07Z</time>
      </trkpt>
      <trkpt lat="43.5206" lon="6.60185">
        <ele>98.9</ele>
        <time>2022-04-25T12:25:18Z</time>
      </trkpt>
      <trkpt lat="43.5205" lon="6.60184">
        <ele>98</ele>
        <time>2022-04-25T12:26:27Z</time>
      </trkpt>
      <trkpt lat="43.52041" lon="6.60187">
        <ele>98.3</ele>
        <time>2022-04-25T12:26:38Z</time>
      </trkpt>
      <trkpt lat="43.52031" lon="6.60186">
        <ele>98.3</ele>
        <time>2022-04-25T12:26:48Z</time>
      </trkpt>
      <trkpt lat="43.52022" lon="6.60181">
        <ele>97.8</ele>
        <time>2022-04-25T12:26:59Z</time>
      </trkpt>
      <trkpt lat="43.52014" lon="6.60175">
        <ele>97.1</ele>
        <time>2022-04-25T12:27:10Z</time>
      </trkpt>
      <trkpt lat="43.52007" lon="6.60166">
        <ele>96.3</ele>
        <time>2022-04-25T12:27:20Z</time>
      </trkpt>
      <trkpt lat="43.52002" lon="6.60155">
        <ele>95.6</ele>
        <time>2022-04-25T12:27:31Z</time>
      </trkpt>
      <trkpt lat="43.51998" lon="6.60143">
        <ele>95.3</ele>
        <time>2022-04-25T12:27:40Z</time>
      </trkpt>
      <trkpt lat="43.51994" lon="6.60132">
        <ele>94.8</ele>
        <time>2022-04-25T12:27:50Z</time>
      </trkpt>
      <trkpt lat="43.51989" lon="6.60121">
        <ele>94</ele>
        <time>2022-04-25T12:28:01Z</time>
      </trkpt>
      <trkpt lat="43.51982" lon="6.60113">
        <ele>93.4</ele>
        <time>2022-04-25T12:28:11Z</time>
      </trkpt>
      <trkpt lat="43.51974" lon="6.60106">
        <ele>92.9</ele>
        <time>2022-04-25T12:28:21Z</time>
      </trkpt>
      <trkpt lat="43.51966" lon="6.601">
        <ele>92.7</ele>
        <time>2022-04-25T12:28:31Z</time>
      </trkpt>
      <trkpt lat="43.51959" lon="6.60092">
        <ele>92.2</ele>
        <time>2022-04-25T12:28:41Z</time>
      </trkpt>
      <trkpt lat="43.51951" lon="6.60084">
        <ele>92.2</ele>
        <time>2022-04-25T12:28:51Z</time>
      </trkpt>
      <trkpt lat="43.51945" lon="6.60075">
        <ele>92.4</ele>
        <time>2022-04-25T12:29:00Z</time>
      </trkpt>
      <trkpt lat="43.51937" lon="6.60068">
        <ele>92</ele>
        <time>2022-04-25T12:29:09Z</time>
      </trkpt>
      <trkpt lat="43.51928" lon="6.60068">
        <ele>91.8</ele>
        <time>2022-04-25T12:29:20Z</time>
      </trkpt>
      <trkpt lat="43.51918" lon="6.60068">
        <ele>91.8</ele>
        <time>2022-04-25T12:29:29Z</time>
      </trkpt>
      <trkpt lat="43.51909" lon="6.60068">
        <ele>91.7</ele>
        <time>2022-04-25T12:29:52Z</time>
      </trkpt>
      <trkpt lat="43.51899" lon="6.60069">
        <ele>91.3</ele>
        <time>2022-04-25T12:30:03Z</time>
      </trkpt>
      <trkpt lat="43.5189" lon="6.60073">
        <ele>91.7</ele>
        <time>2022-04-25T12:30:17Z</time>
      </trkpt>
      <trkpt lat="43.51881" lon="6.60075">
        <ele>91.6</ele>
        <time>2022-04-25T12:30:30Z</time>
      </trkpt>
      <trkpt lat="43.51872" lon="6.60078">
        <ele>90.4</ele>
        <time>2022-04-25T12:30:43Z</time>
      </trkpt>
      <trkpt lat="43.51862" lon="6.60076">
        <ele>90.5</ele>
        <time>2022-04-25T12:32:12Z</time>
      </trkpt>
      <trkpt lat="43.51853" lon="6.60079">
        <ele>89.6</ele>
        <time>2022-04-25T12:32:57Z</time>
      </trkpt>
      <trkpt lat="43.51844" lon="6.6008">
        <ele>89.9</ele>
        <time>2022-04-25T12:36:47Z</time>
      </trkpt>
      <trkpt lat="43.51835" lon="6.60077">
        <ele>88.2</ele>
        <time>2022-04-25T12:38:12Z</time>
      </trkpt>
      <trkpt lat="43.51825" lon="6.60079">
        <ele>87.3</ele>
        <time>2022-04-25T12:38:27Z</time>
      </trkpt>
      <trkpt lat="43.51816" lon="6.60079">
        <ele>86.9</ele>
        <time>2022-04-25T12:38:39Z</time>
      </trkpt>
      <trkpt lat="43.51806" lon="6.6008">
        <ele>85.8</ele>
        <time>2022-04-25T12:38:53Z</time>
      </trkpt>
      <trkpt lat="43.51796" lon="6.6008">
        <ele>85</ele>
        <time>2022-04-25T12:39:07Z</time>
      </trkpt>
      <trkpt lat="43.51787" lon="6.60079">
        <ele>84.4</ele>
        <time>2022-04-25T12:39:16Z</time>
      </trkpt>
      <trkpt lat="43.51777" lon="6.60078">
        <ele>83.5</ele>
        <time>2022-04-25T12:39:26Z</time>
      </trkpt>
      <trkpt lat="43.51767" lon="6.60076">
        <ele>82.8</ele>
        <time>2022-04-25T12:39:35Z</time>
      </trkpt>
      <trkpt lat="43.51758" lon="6.60076">
        <ele>81.9</ele>
        <time>2022-04-25T12:39:43Z</time>
      </trkpt>
      <trkpt lat="43.51749" lon="6.60078">
        <ele>81.2</ele>
        <time>2022-04-25T12:39:52Z</time>
      </trkpt>
      <trkpt lat="43.5174" lon="6.60078">
        <ele>80.4</ele>
        <time>2022-04-25T12:40:01Z</time>
      </trkpt>
      <trkpt lat="43.5173" lon="6.60078">
        <ele>79.7</ele>
        <time>2022-04-25T12:40:10Z</time>
      </trkpt>
      <trkpt lat="43.5172" lon="6.60077">
        <ele>79.3</ele>
        <time>2022-04-25T12:40:19Z</time>
      </trkpt>
      <trkpt lat="43.51711" lon="6.60075">
        <ele>78.8</ele>
        <time>2022-04-25T12:40:28Z</time>
      </trkpt>
      <trkpt lat="43.51701" lon="6.60073">
        <ele>79.2</ele>
        <time>2022-04-25T12:40:37Z</time>
      </trkpt>
      <trkpt lat="43.51692" lon="6.60072">
        <ele>79</ele>
        <time>2022-04-25T12:40:45Z</time>
      </trkpt>
      <trkpt lat="43.51682" lon="6.60069">
        <ele>78.7</ele>
        <time>2022-04-25T12:40:54Z</time>
      </trkpt>
      <trkpt lat="43.51673" lon="6.60067">
        <ele>78.7</ele>
        <time>2022-04-25T12:41:03Z</time>
      </trkpt>
      <trkpt lat="43.51664" lon="6.60064">
        <ele>78.4</ele>
        <time>2022-04-25T12:41:12Z</time>
      </trkpt>
      <trkpt lat="43.51654" lon="6.60064">
        <ele>78.6</ele>
        <time>2022-04-25T12:41:22Z</time>
      </trkpt>
      <trkpt lat="43.51645" lon="6.60066">
        <ele>78.5</ele>
        <time>2022-04-25T12:41:31Z</time>
      </trkpt>
      <trkpt lat="43.51636" lon="6.60069">
        <ele>78.6</ele>
        <time>2022-04-25T12:41:39Z</time>
      </trkpt>
      <trkpt lat="43.51626" lon="6.6007">
        <ele>78.4</ele>
        <time>2022-04-25T12:41:48Z</time>
      </trkpt>
      <trkpt lat="43.51616" lon="6.60071">
        <ele>78.3</ele>
        <time>2022-04-25T12:41:57Z</time>
      </trkpt>
      <trkpt lat="43.51607" lon="6.60069">
        <ele>78.1</ele>
        <time>2022-04-25T12:42:05Z</time>
      </trkpt>
      <trkpt lat="43.51598" lon="6.60068">
        <ele>78.3</ele>
        <time>2022-04-25T12:42:13Z</time>
      </trkpt>
      <trkpt lat="43.51588" lon="6.60068">
        <ele>78.4</ele>
        <time>2022-04-25T12:42:22Z</time>
      </trkpt>
      <trkpt lat="43.51578" lon="6.60068">
        <ele>79.1</ele>
        <time>2022-04-25T12:42:31Z</time>
      </trkpt>
      <trkpt lat="43.51569" lon="6.60068">
        <ele>78.9</ele>
        <time>2022-04-25T12:42:39Z</time>
      </trkpt>
      <trkpt lat="43.51559" lon="6.60067">
        <ele>79.2</ele>
        <time>2022-04-25T12:42:48Z</time>
      </trkpt>
      <trkpt lat="43.51549" lon="6.60067">
        <ele>79.7</ele>
        <time>2022-04-25T12:42:57Z</time>
      </trkpt>
      <trkpt lat="43.5154" lon="6.60067">
        <ele>80.5</ele>
        <time>2022-04-25T12:43:06Z</time>
      </trkpt>
      <trkpt lat="43.51531" lon="6.60066">
        <ele>81.3</ele>
        <time>2022-04-25T12:43:14Z</time>
      </trkpt>
      <trkpt lat="43.51521" lon="6.60063">
        <ele>81.5</ele>
        <time>2022-04-25T12:43:22Z</time>
      </trkpt>
      <trkpt lat="43.51512" lon="6.60059">
        <ele>82</ele>
        <time>2022-04-25T12:43:30Z</time>
      </trkpt>
      <trkpt lat="43.51502" lon="6.60056">
        <ele>82.1</ele>
        <time>2022-04-25T12:43:38Z</time>
      </trkpt>
      <trkpt lat="43.51494" lon="6.60048">
        <ele>82.3</ele>
        <time>2022-04-25T12:43:47Z</time>
      </trkpt>
      <trkpt lat="43.51487" lon="6.60041">
        <ele>81.9</ele>
        <time>2022-04-25T12:43:56Z</time>
      </trkpt>
      <trkpt lat="43.5148" lon="6.60031">
        <ele>81.4</ele>
        <time>2022-04-25T12:44:05Z</time>
      </trkpt>
      <trkpt lat="43.51473" lon="6.60022">
        <ele>81</ele>
        <time>2022-04-25T12:44:14Z</time>
      </trkpt>
      <trkpt lat="43.51465" lon="6.60013">
        <ele>80.6</ele>
        <time>2022-04-25T12:44:23Z</time>
      </trkpt>
      <trkpt lat="43.51458" lon="6.60004">
        <ele>80.3</ele>
        <time>2022-04-25T12:44:31Z</time>
      </trkpt>
      <trkpt lat="43.5145" lon="6.59995">
        <ele>79.7</ele>
        <time>2022-04-25T12:44:40Z</time>
      </trkpt>
      <trkpt lat="43.51441" lon="6.5999">
        <ele>79.5</ele>
        <time>2022-04-25T12:44:49Z</time>
      </trkpt>
      <trkpt lat="43.51432" lon="6.59987">
        <ele>79.3</ele>
        <time>2022-04-25T12:44:57Z</time>
      </trkpt>
      <trkpt lat="43.51423" lon="6.59988">
        <ele>79.3</ele>
        <time>2022-04-25T12:45:05Z</time>
      </trkpt>
      <trkpt lat="43.51413" lon="6.59992">
        <ele>79.4</ele>
        <time>2022-04-25T12:45:14Z</time>
      </trkpt>
      <trkpt lat="43.51405" lon="6.59998">
        <ele>79.3</ele>
        <time>2022-04-25T12:45:22Z</time>
      </trkpt>
      <trkpt lat="43.51397" lon="6.60006">
        <ele>79.2</ele>
        <time>2022-04-25T12:45:31Z</time>
      </trkpt>
      <trkpt lat="43.51389" lon="6.60013">
        <ele>79.1</ele>
        <time>2022-04-25T12:45:39Z</time>
      </trkpt>
      <trkpt lat="43.51381" lon="6.60021">
        <ele>79</ele>
        <time>2022-04-25T12:45:48Z</time>
      </trkpt>
      <trkpt lat="43.51374" lon="6.6003">
        <ele>78.7</ele>
        <time>2022-04-25T12:45:57Z</time>
      </trkpt>
      <trkpt lat="43.51367" lon="6.60038">
        <ele>78.5</ele>
        <time>2022-04-25T12:46:05Z</time>
      </trkpt>
      <trkpt lat="43.5136" lon="6.60047">
        <ele>78.3</ele>
        <time>2022-04-25T12:46:14Z</time>
      </trkpt>
      <trkpt lat="43.51354" lon="6.60057">
        <ele>77.7</ele>
        <time>2022-04-25T12:49:38Z</time>
      </trkpt>
      <trkpt lat="43.51346" lon="6.60063">
        <ele>77.5</ele>
        <time>2022-04-25T12:49:50Z</time>
      </trkpt>
      <trkpt lat="43.51339" lon="6.60072">
        <ele>77.3</ele>
        <time>2022-04-25T12:49:59Z</time>
      </trkpt>
      <trkpt lat="43.51332" lon="6.60081">
        <ele>76.9</ele>
        <time>2022-04-25T12:50:53Z</time>
      </trkpt>
      <trkpt lat="43.51325" lon="6.60089">
        <ele>76.6</ele>
        <time>2022-04-25T12:51:02Z</time>
      </trkpt>
      <trkpt lat="43.51318" lon="6.60097">
        <ele>76.4</ele>
        <time>2022-04-25T12:51:11Z</time>
      </trkpt>
      <trkpt lat="43.51311" lon="6.60105">
        <ele>76</ele>
        <time>2022-04-25T12:51:20Z</time>
      </trkpt>
      <trkpt lat="43.51304" lon="6.60114">
        <ele>75.6</ele>
        <time>2022-04-25T12:51:30Z</time>
      </trkpt>
      <trkpt lat="43.51296" lon="6.60123">
        <ele>75.7</ele>
        <time>2022-04-25T12:51:39Z</time>
      </trkpt>
      <trkpt lat="43.51289" lon="6.6013">
        <ele>75.4</ele>
        <time>2022-04-25T12:51:47Z</time>
      </trkpt>
      <trkpt lat="43.51281" lon="6.60136">
        <ele>75.2</ele>
        <time>2022-04-25T12:51:55Z</time>
      </trkpt>
      <trkpt lat="43.51273" lon="6.60143">
        <ele>75.2</ele>
        <time>2022-04-25T12:52:04Z</time>
      </trkpt>
      <trkpt lat="43.51264" lon="6.6015">
        <ele>74.7</ele>
        <time>2022-04-25T12:52:13Z</time>
      </trkpt>
      <trkpt lat="43.51256" lon="6.60157">
        <ele>74.6</ele>
        <time>2022-04-25T12:52:21Z</time>
      </trkpt>
      <trkpt lat="43.51249" lon="6.60164">
        <ele>74.4</ele>
        <time>2022-04-25T12:52:29Z</time>
      </trkpt>
      <trkpt lat="43.51241" lon="6.6017">
        <ele>74.3</ele>
        <time>2022-04-25T12:52:37Z</time>
      </trkpt>
      <trkpt lat="43.51233" lon="6.60176">
        <ele>74</ele>
        <time>2022-04-25T12:52:45Z</time>
      </trkpt>
      <trkpt lat="43.51225" lon="6.60183">
        <ele>73.6</ele>
        <time>2022-04-25T12:52:53Z</time>
      </trkpt>
      <trkpt lat="43.51217" lon="6.6019">
        <ele>73.4</ele>
        <time>2022-04-25T12:53:01Z</time>
      </trkpt>
      <trkpt lat="43.51208" lon="6.60196">
        <ele>73.3</ele>
        <time>2022-04-25T12:53:14Z</time>
      </trkpt>
      <trkpt lat="43.512" lon="6.60201">
        <ele>73.2</ele>
        <time>2022-04-25T12:53:23Z</time>
      </trkpt>
      <trkpt lat="43.51191" lon="6.60206">
        <ele>72.7</ele>
        <time>2022-04-25T12:53:31Z</time>
      </trkpt>
      <trkpt lat="43.51183" lon="6.6021">
        <ele>72.5</ele>
        <time>2022-04-25T12:53:39Z</time>
      </trkpt>
      <trkpt lat="43.51174" lon="6.60215">
        <ele>72.5</ele>
        <time>2022-04-25T12:53:47Z</time>
      </trkpt>
      <trkpt lat="43.51164" lon="6.60218">
        <ele>72</ele>
        <time>2022-04-25T12:53:56Z</time>
      </trkpt>
      <trkpt lat="43.51156" lon="6.60223">
        <ele>71.3</ele>
        <time>2022-04-25T12:54:06Z</time>
      </trkpt>
      <trkpt lat="43.51146" lon="6.60228">
        <ele>70.9</ele>
        <time>2022-04-25T12:54:15Z</time>
      </trkpt>
      <trkpt lat="43.51138" lon="6.60232">
        <ele>70.5</ele>
        <time>2022-04-25T12:54:24Z</time>
      </trkpt>
      <trkpt lat="43.51129" lon="6.60238">
        <ele>70</ele>
        <time>2022-04-25T12:54:35Z</time>
      </trkpt>
      <trkpt lat="43.5112" lon="6.60244">
        <ele>69.8</ele>
        <time>2022-04-25T12:54:45Z</time>
      </trkpt>
      <trkpt lat="43.51112" lon="6.60248">
        <ele>70.2</ele>
        <time>2022-04-25T12:54:54Z</time>
      </trkpt>
      <trkpt lat="43.51103" lon="6.60253">
        <ele>70.2</ele>
        <time>2022-04-25T12:55:04Z</time>
      </trkpt>
      <trkpt lat="43.51094" lon="6.60253">
        <ele>70.1</ele>
        <time>2022-04-25T12:55:14Z</time>
      </trkpt>
      <trkpt lat="43.51084" lon="6.60251">
        <ele>69.9</ele>
        <time>2022-04-25T12:55:24Z</time>
      </trkpt>
      <trkpt lat="43.51076" lon="6.60246">
        <ele>69.5</ele>
        <time>2022-04-25T12:55:33Z</time>
      </trkpt>
      <trkpt lat="43.51067" lon="6.60242">
        <ele>69.9</ele>
        <time>2022-04-25T12:55:43Z</time>
      </trkpt>
      <trkpt lat="43.5106" lon="6.60231">
        <ele>70</ele>
        <time>2022-04-25T12:55:53Z</time>
      </trkpt>
      <trkpt lat="43.51053" lon="6.60222">
        <ele>69.9</ele>
        <time>2022-04-25T12:56:02Z</time>
      </trkpt>
      <trkpt lat="43.51045" lon="6.60216">
        <ele>69.8</ele>
        <time>2022-04-25T12:56:10Z</time>
      </trkpt>
      <trkpt lat="43.51038" lon="6.60207">
        <ele>69.5</ele>
        <time>2022-04-25T12:56:17Z</time>
      </trkpt>
      <trkpt lat="43.51032" lon="6.60199">
        <ele>69.1</ele>
        <time>2022-04-25T12:56:25Z</time>
      </trkpt>
      <trkpt lat="43.51024" lon="6.6019">
        <ele>68.7</ele>
        <time>2022-04-25T12:56:34Z</time>
      </trkpt>
      <trkpt lat="43.51015" lon="6.60183">
        <ele>68.3</ele>
        <time>2022-04-25T12:56:43Z</time>
      </trkpt>
      <trkpt lat="43.51007" lon="6.60176">
        <ele>67.6</ele>
        <time>2022-04-25T12:56:52Z</time>
      </trkpt>
      <trkpt lat="43.51" lon="6.60169">
        <ele>66.4</ele>
        <time>2022-04-25T12:57:00Z</time>
      </trkpt>
      <trkpt lat="43.50991" lon="6.60162">
        <ele>64.9</ele>
        <time>2022-04-25T12:57:09Z</time>
      </trkpt>
      <trkpt lat="43.50984" lon="6.60153">
        <ele>64.5</ele>
        <time>2022-04-25T12:57:16Z</time>
      </trkpt>
      <trkpt lat="43.50978" lon="6.60144">
        <ele>64.5</ele>
        <time>2022-04-25T12:57:24Z</time>
      </trkpt>
      <trkpt lat="43.50974" lon="6.60133">
        <ele>63.8</ele>
        <time>2022-04-25T12:57:31Z</time>
      </trkpt>
      <trkpt lat="43.50971" lon="6.60119">
        <ele>63.6</ele>
        <time>2022-04-25T12:57:40Z</time>
      </trkpt>
      <trkpt lat="43.50969" lon="6.60106">
        <ele>63.3</ele>
        <time>2022-04-25T12:57:49Z</time>
      </trkpt>
      <trkpt lat="43.50966" lon="6.60094">
        <ele>62.7</ele>
        <time>2022-04-25T12:57:57Z</time>
      </trkpt>
      <trkpt lat="43.50964" lon="6.6008">
        <ele>61.9</ele>
        <time>2022-04-25T12:58:06Z</time>
      </trkpt>
      <trkpt lat="43.50963" lon="6.60067">
        <ele>61.1</ele>
        <time>2022-04-25T12:58:14Z</time>
      </trkpt>
      <trkpt lat="43.5096" lon="6.60055">
        <ele>60.3</ele>
        <time>2022-04-25T12:58:22Z</time>
      </trkpt>
      <trkpt lat="43.50953" lon="6.60045">
        <ele>59</ele>
        <time>2022-04-25T12:58:30Z</time>
      </trkpt>
      <trkpt lat="43.50946" lon="6.60037">
        <ele>58.5</ele>
        <time>2022-04-25T12:58:37Z</time>
      </trkpt>
      <trkpt lat="43.50937" lon="6.60032">
        <ele>58.8</ele>
        <time>2022-04-25T12:58:45Z</time>
      </trkpt>
      <trkpt lat="43.5093" lon="6.60024">
        <ele>58.6</ele>
        <time>2022-04-25T12:58:52Z</time>
      </trkpt>
      <trkpt lat="43.5092" lon="6.60019">
        <ele>58.9</ele>
        <time>2022-04-25T12:59:01Z</time>
      </trkpt>
      <trkpt lat="43.5091" lon="6.60017">
        <ele>59.1</ele>
        <time>2022-04-25T12:59:09Z</time>
      </trkpt>
      <trkpt lat="43.50901" lon="6.60014">
        <ele>60</ele>
        <time>2022-04-25T12:59:17Z</time>
      </trkpt>
      <trkpt lat="43.50892" lon="6.60013">
        <ele>61.2</ele>
        <time>2022-04-25T12:59:25Z</time>
      </trkpt>
      <trkpt lat="43.50883" lon="6.6001">
        <ele>62</ele>
        <time>2022-04-25T12:59:33Z</time>
      </trkpt>
      <trkpt lat="43.50874" lon="6.60007">
        <ele>63.6</ele>
        <time>2022-04-25T12:59:45Z</time>
      </trkpt>
      <trkpt lat="43.50865" lon="6.60001">
        <ele>64.1</ele>
        <time>2022-04-25T12:59:54Z</time>
      </trkpt>
      <trkpt lat="43.50857" lon="6.59997">
        <ele>64.5</ele>
        <time>2022-04-25T13:00:04Z</time>
      </trkpt>
      <trkpt lat="43.50848" lon="6.59995">
        <ele>64.9</ele>
        <time>2022-04-25T13:00:24Z</time>
      </trkpt>
      <trkpt lat="43.50839" lon="6.59993">
        <ele>64.7</ele>
        <time>2022-04-25T13:01:00Z</time>
      </trkpt>
      <trkpt lat="43.50832" lon="6.59984">
        <ele>64.5</ele>
        <time>2022-04-25T13:01:12Z</time>
      </trkpt>
      <trkpt lat="43.50822" lon="6.59981">
        <ele>64.1</ele>
        <time>2022-04-25T13:01:21Z</time>
      </trkpt>
      <trkpt lat="43.50813" lon="6.5998">
        <ele>63.7</ele>
        <time>2022-04-25T13:01:29Z</time>
      </trkpt>
      <trkpt lat="43.50804" lon="6.59979">
        <ele>63.2</ele>
        <time>2022-04-25T13:01:36Z</time>
      </trkpt>
      <trkpt lat="43.50793" lon="6.59978">
        <ele>62.7</ele>
        <time>2022-04-25T13:01:44Z</time>
      </trkpt>
      <trkpt lat="43.50784" lon="6.59978">
        <ele>62.7</ele>
        <time>2022-04-25T13:01:52Z</time>
      </trkpt>
      <trkpt lat="43.50775" lon="6.59978">
        <ele>61.6</ele>
        <time>2022-04-25T13:02:38Z</time>
      </trkpt>
      <trkpt lat="43.50765" lon="6.59978">
        <ele>61.6</ele>
        <time>2022-04-25T13:02:48Z</time>
      </trkpt>
      <trkpt lat="43.50756" lon="6.59977">
        <ele>61.3</ele>
        <time>2022-04-25T13:02:58Z</time>
      </trkpt>
      <trkpt lat="43.50747" lon="6.59973">
        <ele>61.1</ele>
        <time>2022-04-25T13:03:07Z</time>
      </trkpt>
      <trkpt lat="43.50737" lon="6.59972">
        <ele>60.9</ele>
        <time>2022-04-25T13:03:15Z</time>
      </trkpt>
      <trkpt lat="43.50735" lon="6.5996">
        <ele>58.9</ele>
        <time>2022-04-25T13:04:19Z</time>
      </trkpt>
      <trkpt lat="43.50726" lon="6.59966">
        <ele>60</ele>
        <time>2022-04-25T13:07:06Z</time>
      </trkpt>
      <trkpt lat="43.50717" lon="6.59967">
        <ele>60.2</ele>
        <time>2022-04-25T13:07:20Z</time>
      </trkpt>
      <trkpt lat="43.50708" lon="6.59967">
        <ele>60.3</ele>
        <time>2022-04-25T13:07:30Z</time>
      </trkpt>
      <trkpt lat="43.50699" lon="6.59969">
        <ele>60.2</ele>
        <time>2022-04-25T13:07:51Z</time>
      </trkpt>
      <trkpt lat="43.50691" lon="6.59974">
        <ele>61.1</ele>
        <time>2022-04-25T13:08:05Z</time>
      </trkpt>
      <trkpt lat="43.50682" lon="6.59981">
        <ele>61.7</ele>
        <time>2022-04-25T13:08:19Z</time>
      </trkpt>
      <trkpt lat="43.50675" lon="6.5999">
        <ele>62.3</ele>
        <time>2022-04-25T13:08:31Z</time>
      </trkpt>
      <trkpt lat="43.50668" lon="6.59999">
        <ele>63</ele>
        <time>2022-04-25T13:08:42Z</time>
      </trkpt>
      <trkpt lat="43.50661" lon="6.60008">
        <ele>63.5</ele>
        <time>2022-04-25T13:09:06Z</time>
      </trkpt>
      <trkpt lat="43.50655" lon="6.60018">
        <ele>63.8</ele>
        <time>2022-04-25T13:09:29Z</time>
      </trkpt>
      <trkpt lat="43.50647" lon="6.60025">
        <ele>64.5</ele>
        <time>2022-04-25T13:09:53Z</time>
      </trkpt>
      <trkpt lat="43.50638" lon="6.6002">
        <ele>64.5</ele>
        <time>2022-04-25T13:10:28Z</time>
      </trkpt>
      <trkpt lat="43.5063" lon="6.60014">
        <ele>64</ele>
        <time>2022-04-25T13:10:44Z</time>
      </trkpt>
      <trkpt lat="43.50622" lon="6.60006">
        <ele>63.3</ele>
        <time>2022-04-25T13:10:56Z</time>
      </trkpt>
      <trkpt lat="43.50616" lon="6.59998">
        <ele>62.2</ele>
        <time>2022-04-25T13:11:07Z</time>
      </trkpt>
      <trkpt lat="43.50609" lon="6.59989">
        <ele>61.2</ele>
        <time>2022-04-25T13:11:17Z</time>
      </trkpt>
      <trkpt lat="43.50602" lon="6.59981">
        <ele>60.4</ele>
        <time>2022-04-25T13:11:26Z</time>
      </trkpt>
      <trkpt lat="43.50593" lon="6.59974">
        <ele>60</ele>
        <time>2022-04-25T13:11:34Z</time>
      </trkpt>
      <trkpt lat="43.50584" lon="6.59969">
        <ele>59.5</ele>
        <time>2022-04-25T13:11:41Z</time>
      </trkpt>
      <trkpt lat="43.50575" lon="6.59966">
        <ele>59.1</ele>
        <time>2022-04-25T13:11:49Z</time>
      </trkpt>
      <trkpt lat="43.50567" lon="6.59961">
        <ele>59.3</ele>
        <time>2022-04-25T13:11:58Z</time>
      </trkpt>
      <trkpt lat="43.50558" lon="6.59955">
        <ele>58.8</ele>
        <time>2022-04-25T13:12:06Z</time>
      </trkpt>
      <trkpt lat="43.5055" lon="6.59949">
        <ele>58.6</ele>
        <time>2022-04-25T13:12:15Z</time>
      </trkpt>
      <trkpt lat="43.50541" lon="6.59941">
        <ele>58.3</ele>
        <time>2022-04-25T13:12:23Z</time>
      </trkpt>
      <trkpt lat="43.50533" lon="6.59936">
        <ele>58.3</ele>
        <time>2022-04-25T13:12:30Z</time>
      </trkpt>
      <trkpt lat="43.50526" lon="6.59928">
        <ele>58.1</ele>
        <time>2022-04-25T13:12:38Z</time>
      </trkpt>
      <trkpt lat="43.50524" lon="6.59915">
        <ele>57.8</ele>
        <time>2022-04-25T13:12:48Z</time>
      </trkpt>
      <trkpt lat="43.50522" lon="6.59902">
        <ele>57.8</ele>
        <time>2022-04-25T13:12:57Z</time>
      </trkpt>
      <trkpt lat="43.5052" lon="6.59888">
        <ele>58</ele>
        <time>2022-04-25T13:13:06Z</time>
      </trkpt>
      <trkpt lat="43.50521" lon="6.59875">
        <ele>58.2</ele>
        <time>2022-04-25T13:13:15Z</time>
      </trkpt>
      <trkpt lat="43.50521" lon="6.59862">
        <ele>57.6</ele>
        <time>2022-04-25T13:13:24Z</time>
      </trkpt>
      <trkpt lat="43.50521" lon="6.59848">
        <ele>57.1</ele>
        <time>2022-04-25T13:13:33Z</time>
      </trkpt>
      <trkpt lat="43.50521" lon="6.59835">
        <ele>56.9</ele>
        <time>2022-04-25T13:13:42Z</time>
      </trkpt>
      <trkpt lat="43.50523" lon="6.59822">
        <ele>56.5</ele>
        <time>2022-04-25T13:13:51Z</time>
      </trkpt>
      <trkpt lat="43.50525" lon="6.5981">
        <ele>56.2</ele>
        <time>2022-04-25T13:14:00Z</time>
      </trkpt>
      <trkpt lat="43.50527" lon="6.59796">
        <ele>55.8</ele>
        <time>2022-04-25T13:14:10Z</time>
      </trkpt>
      <trkpt lat="43.50528" lon="6.59783">
        <ele>55.3</ele>
        <time>2022-04-25T13:14:19Z</time>
      </trkpt>
      <trkpt lat="43.50523" lon="6.59772">
        <ele>54.8</ele>
        <time>2022-04-25T13:14:29Z</time>
      </trkpt>
      <trkpt lat="43.50516" lon="6.59764">
        <ele>54.5</ele>
        <time>2022-04-25T13:14:39Z</time>
      </trkpt>
      <trkpt lat="43.50509" lon="6.59755">
        <ele>53.9</ele>
        <time>2022-04-25T13:14:49Z</time>
      </trkpt>
      <trkpt lat="43.50506" lon="6.59742">
        <ele>53.5</ele>
        <time>2022-04-25T13:14:59Z</time>
      </trkpt>
      <trkpt lat="43.50506" lon="6.59729">
        <ele>53.3</ele>
        <time>2022-04-25T13:15:09Z</time>
      </trkpt>
      <trkpt lat="43.50505" lon="6.59717">
        <ele>53.3</ele>
        <time>2022-04-25T13:15:18Z</time>
      </trkpt>
      <trkpt lat="43.50504" lon="6.59704">
        <ele>53</ele>
        <time>2022-04-25T13:15:29Z</time>
      </trkpt>
      <trkpt lat="43.50504" lon="6.5969">
        <ele>53.1</ele>
        <time>2022-04-25T13:15:39Z</time>
      </trkpt>
      <trkpt lat="43.50504" lon="6.59677">
        <ele>53</ele>
        <time>2022-04-25T13:15:49Z</time>
      </trkpt>
      <trkpt lat="43.50503" lon="6.59664">
        <ele>52.3</ele>
        <time>2022-04-25T13:15:59Z</time>
      </trkpt>
      <trkpt lat="43.50504" lon="6.59651">
        <ele>52.3</ele>
        <time>2022-04-25T13:16:08Z</time>
      </trkpt>
      <trkpt lat="43.50503" lon="6.59639">
        <ele>52.2</ele>
        <time>2022-04-25T13:16:17Z</time>
      </trkpt>
      <trkpt lat="43.50498" lon="6.59628">
        <ele>52.1</ele>
        <time>2022-04-25T13:16:26Z</time>
      </trkpt>
      <trkpt lat="43.50491" lon="6.59618">
        <ele>51.5</ele>
        <time>2022-04-25T13:16:36Z</time>
      </trkpt>
      <trkpt lat="43.50485" lon="6.59608">
        <ele>51</ele>
        <time>2022-04-25T13:16:46Z</time>
      </trkpt>
      <trkpt lat="43.50478" lon="6.59599">
        <ele>50.6</ele>
        <time>2022-04-25T13:16:57Z</time>
      </trkpt>
      <trkpt lat="43.50471" lon="6.59592">
        <ele>50.3</ele>
        <time>2022-04-25T13:17:08Z</time>
      </trkpt>
      <trkpt lat="43.50462" lon="6.59585">
        <ele>50.3</ele>
        <time>2022-04-25T13:17:17Z</time>
      </trkpt>
      <trkpt lat="43.50455" lon="6.59577">
        <ele>49.9</ele>
        <time>2022-04-25T13:17:26Z</time>
      </trkpt>
      <trkpt lat="43.50447" lon="6.59568">
        <ele>49</ele>
        <time>2022-04-25T13:17:36Z</time>
      </trkpt>
      <trkpt lat="43.50441" lon="6.59558">
        <ele>48.6</ele>
        <time>2022-04-25T13:17:46Z</time>
      </trkpt>
      <trkpt lat="43.50435" lon="6.59548">
        <ele>48.5</ele>
        <time>2022-04-25T13:17:56Z</time>
      </trkpt>
      <trkpt lat="43.5043" lon="6.59537">
        <ele>48</ele>
        <time>2022-04-25T13:18:06Z</time>
      </trkpt>
      <trkpt lat="43.5043" lon="6.59525">
        <ele>48.1</ele>
        <time>2022-04-25T13:18:16Z</time>
      </trkpt>
      <trkpt lat="43.50434" lon="6.59513">
        <ele>47.6</ele>
        <time>2022-04-25T13:18:28Z</time>
      </trkpt>
      <trkpt lat="43.5044" lon="6.59504">
        <ele>47.1</ele>
        <time>2022-04-25T13:18:41Z</time>
      </trkpt>
      <trkpt lat="43.50446" lon="6.59494">
        <ele>46.6</ele>
        <time>2022-04-25T13:18:54Z</time>
      </trkpt>
      <trkpt lat="43.50451" lon="6.59483">
        <ele>45.4</ele>
        <time>2022-04-25T13:19:06Z</time>
      </trkpt>
      <trkpt lat="43.50457" lon="6.59473">
        <ele>45.1</ele>
        <time>2022-04-25T13:19:16Z</time>
      </trkpt>
      <trkpt lat="43.50464" lon="6.59464">
        <ele>44.5</ele>
        <time>2022-04-25T13:19:26Z</time>
      </trkpt>
      <trkpt lat="43.5047" lon="6.59455">
        <ele>43.5</ele>
        <time>2022-04-25T13:19:40Z</time>
      </trkpt>
      <trkpt lat="43.50475" lon="6.59444">
        <ele>42.7</ele>
        <time>2022-04-25T13:19:52Z</time>
      </trkpt>
      <trkpt lat="43.50482" lon="6.59434">
        <ele>42.2</ele>
        <time>2022-04-25T13:20:14Z</time>
      </trkpt>
      <trkpt lat="43.50488" lon="6.59424">
        <ele>42.2</ele>
        <time>2022-04-25T13:20:33Z</time>
      </trkpt>
      <trkpt lat="43.50493" lon="6.59414">
        <ele>41.8</ele>
        <time>2022-04-25T13:20:44Z</time>
      </trkpt>
      <trkpt lat="43.50494" lon="6.59401">
        <ele>41.3</ele>
        <time>2022-04-25T13:21:27Z</time>
      </trkpt>
      <trkpt lat="43.50499" lon="6.59411">
        <ele>41.2</ele>
        <time>2022-04-25T13:21:40Z</time>
      </trkpt>
      <trkpt lat="43.50501" lon="6.59424">
        <ele>41.5</ele>
        <time>2022-04-25T13:21:54Z</time>
      </trkpt>
      <trkpt lat="43.50503" lon="6.59412">
        <ele>41.7</ele>
        <time>2022-04-25T13:22:54Z</time>
      </trkpt>
      <trkpt lat="43.50496" lon="6.59403">
        <ele>41</ele>
        <time>2022-04-25T13:23:04Z</time>
      </trkpt>
      <trkpt lat="43.50498" lon="6.59391">
        <ele>41.6</ele>
        <time>2022-04-25T13:25:55Z</time>
      </trkpt>
      <trkpt lat="43.50496" lon="6.59378">
        <ele>40.3</ele>
        <time>2022-04-25T13:26:10Z</time>
      </trkpt>
      <trkpt lat="43.50494" lon="6.59365">
        <ele>40.5</ele>
        <time>2022-04-25T13:26:23Z</time>
      </trkpt>
      <trkpt lat="43.50493" lon="6.59352">
        <ele>40.1</ele>
        <time>2022-04-25T13:26:34Z</time>
      </trkpt>
      <trkpt lat="43.50492" lon="6.59339">
        <ele>41.1</ele>
        <time>2022-04-25T13:26:51Z</time>
      </trkpt>
      <trkpt lat="43.50492" lon="6.59326">
        <ele>40.7</ele>
        <time>2022-04-25T13:27:04Z</time>
      </trkpt>
      <trkpt lat="43.50494" lon="6.59314">
        <ele>40.8</ele>
        <time>2022-04-25T13:27:27Z</time>
      </trkpt>
      <trkpt lat="43.50496" lon="6.59301">
        <ele>41.3</ele>
        <time>2022-04-25T13:27:38Z</time>
      </trkpt>
      <trkpt lat="43.50497" lon="6.59289">
        <ele>41.2</ele>
        <time>2022-04-25T13:27:50Z</time>
      </trkpt>
      <trkpt lat="43.50496" lon="6.59276">
        <ele>41.2</ele>
        <time>2022-04-25T13:28:02Z</time>
      </trkpt>
      <trkpt lat="43.50497" lon="6.59264">
        <ele>41</ele>
        <time>2022-04-25T13:28:13Z</time>
      </trkpt>
      <trkpt lat="43.50498" lon="6.59251">
        <ele>40.5</ele>
        <time>2022-04-25T13:28:24Z</time>
      </trkpt>
      <trkpt lat="43.50494" lon="6.59239">
        <ele>40.4</ele>
        <time>2022-04-25T13:28:36Z</time>
      </trkpt>
      <trkpt lat="43.50489" lon="6.59227">
        <ele>41.1</ele>
        <time>2022-04-25T13:28:49Z</time>
      </trkpt>
      <trkpt lat="43.50488" lon="6.59215">
        <ele>41.9</ele>
        <time>2022-04-25T13:29:02Z</time>
      </trkpt>
      <trkpt lat="43.50483" lon="6.59204">
        <ele>42.3</ele>
        <time>2022-04-25T13:29:13Z</time>
      </trkpt>
      <trkpt lat="43.50475" lon="6.59197">
        <ele>41.7</ele>
        <time>2022-04-25T13:29:25Z</time>
      </trkpt>
      <trkpt lat="43.50468" lon="6.59188">
        <ele>41.1</ele>
        <time>2022-04-25T13:29:35Z</time>
      </trkpt>
      <trkpt lat="43.50461" lon="6.59179">
        <ele>40.4</ele>
        <time>2022-04-25T13:29:51Z</time>
      </trkpt>
      <trkpt lat="43.50452" lon="6.59173">
        <ele>39.8</ele>
        <time>2022-04-25T13:30:01Z</time>
      </trkpt>
      <trkpt lat="43.50444" lon="6.59168">
        <ele>39.8</ele>
        <time>2022-04-25T13:30:12Z</time>
      </trkpt>
      <trkpt lat="43.50435" lon="6.59163">
        <ele>38.7</ele>
        <time>2022-04-25T13:30:23Z</time>
      </trkpt>
      <trkpt lat="43.50426" lon="6.59161">
        <ele>37.8</ele>
        <time>2022-04-25T13:30:33Z</time>
      </trkpt>
      <trkpt lat="43.50418" lon="6.59156">
        <ele>37</ele>
        <time>2022-04-25T13:30:45Z</time>
      </trkpt>
      <trkpt lat="43.50409" lon="6.59153">
        <ele>36.8</ele>
        <time>2022-04-25T13:30:56Z</time>
      </trkpt>
      <trkpt lat="43.504" lon="6.59151">
        <ele>36.1</ele>
        <time>2022-04-25T13:31:06Z</time>
      </trkpt>
      <trkpt lat="43.50391" lon="6.59146">
        <ele>34.3</ele>
        <time>2022-04-25T13:31:27Z</time>
      </trkpt>
      <trkpt lat="43.50382" lon="6.59143">
        <ele>33.1</ele>
        <time>2022-04-25T13:31:39Z</time>
      </trkpt>
      <trkpt lat="43.50373" lon="6.59141">
        <ele>33.2</ele>
        <time>2022-04-25T13:32:01Z</time>
      </trkpt>
      <trkpt lat="43.50364" lon="6.59137">
        <ele>31</ele>
        <time>2022-04-25T13:32:17Z</time>
      </trkpt>
      <trkpt lat="43.50359" lon="6.59126">
        <ele>29.5</ele>
        <time>2022-04-25T13:32:55Z</time>
      </trkpt>
      <trkpt lat="43.50363" lon="6.59114">
        <ele>29.1</ele>
        <time>2022-04-25T13:33:05Z</time>
      </trkpt>
      <trkpt lat="43.50367" lon="6.59102">
        <ele>29.1</ele>
        <time>2022-04-25T13:33:15Z</time>
      </trkpt>
      <trkpt lat="43.50367" lon="6.59089">
        <ele>27.8</ele>
        <time>2022-04-25T13:33:27Z</time>
      </trkpt>
      <trkpt lat="43.50374" lon="6.59081">
        <ele>27.2</ele>
        <time>2022-04-25T13:33:59Z</time>
      </trkpt>
      <trkpt lat="43.50383" lon="6.59082">
        <ele>26.7</ele>
        <time>2022-04-25T13:34:26Z</time>
      </trkpt>
      <trkpt lat="43.50392" lon="6.5908">
        <ele>25.1</ele>
        <time>2022-04-25T13:34:35Z</time>
      </trkpt>
      <trkpt lat="43.50402" lon="6.59081">
        <ele>23.3</ele>
        <time>2022-04-25T13:34:45Z</time>
      </trkpt>
      <trkpt lat="43.50411" lon="6.5908">
        <ele>23</ele>
        <time>2022-04-25T13:34:55Z</time>
      </trkpt>
      <trkpt lat="43.50421" lon="6.59083">
        <ele>22.8</ele>
        <time>2022-04-25T13:35:16Z</time>
      </trkpt>
      <trkpt lat="43.5043" lon="6.59085">
        <ele>23.4</ele>
        <time>2022-04-25T13:35:30Z</time>
      </trkpt>
      <trkpt lat="43.5044" lon="6.59084">
        <ele>23.1</ele>
        <time>2022-04-25T13:35:42Z</time>
      </trkpt>
      <trkpt lat="43.50446" lon="6.59073">
        <ele>24.1</ele>
        <time>2022-04-25T13:35:50Z</time>
      </trkpt>
      <trkpt lat="43.50451" lon="6.59067">
        <ele>23.7</ele>
        <time>2022-04-25T13:35:58Z</time>
      </trkpt>
    </trkseg>
  </trk>
</gpx>